M I D A S
Marine Information and Data Acquisition System
Tripno 1658 of the Zeeleeuw from 2009-03-13 12:05:30 to 2009-03-13 14:10:09
Back to CruiseResearch ActivitiesStationsMapUnderway DataData graphs

EquipmentUnitsComment
TimeDGPSUTC
LatitudeDGPSDM.mWGS84
LongitudeDGPSDM.mWGS84
TemperatureSBE03/SBE38deg celciusITS90
ConductivitySBE21S/mITS90
SalinitySBE21 Practical Salinity Units
ChlorophylAChelsea fluorimeterµg/lCalibrated in Aceton
Missing or incorrect values are displayed as -999
Sea surface data collected by the RV Zeeleeuw from 2009-03-13 08:06:48 to 2009-03-13 14:20:20
                                                                                    Next 1000 lines
Time Latitude Longitude Temperature Conductivity Salinity ChlorophylA
2009-03-13 08:06:57 51°13.664 2°55.959 -999 2.338195 16.138804 -1.453281
2009-03-13 08:07:03 51°13.663 2°55.959 -999 2.338299 16.139585 -1.453281
2009-03-13 08:07:08 51°13.663 2°55.959 -999 2.338195 16.138804 -1.453281
2009-03-13 08:07:12 51°13.663 2°55.96 -999 2.338195 16.138804 -1.453281
2009-03-13 08:07:18 51°13.663 2°55.96 -999 2.338195 16.138503 -1.453281
2009-03-13 08:07:23 51°13.663 2°55.96 -999 2.338092 16.137722 -1.453281
2009-03-13 08:07:28 51°13.663 2°55.96 -999 2.337989 16.136942 -1.453281
2009-03-13 08:07:32 51°13.663 2°55.96 -999 2.337885 16.13586 -1.453281
2009-03-13 08:07:37 51°13.663 2°55.96 -999 2.337989 16.13664 -1.453281
2009-03-13 08:07:43 51°13.663 2°55.96 -999 2.337885 16.13586 -1.453281
2009-03-13 08:07:48 51°13.662 2°55.96 -999 2.337885 16.13586 -1.453281
2009-03-13 08:07:52 51°13.662 2°55.96 -999 2.337678 16.133998 -1.453281
2009-03-13 08:07:57 51°13.662 2°55.96 -999 2.337575 16.133217 -1.453281
2009-03-13 08:08:02 51°13.662 2°55.96 -999 2.337575 16.133217 -1.418457
2009-03-13 08:08:08 51°13.662 2°55.96 -999 2.337575 16.132916 -1.453281
2009-03-13 08:08:12 51°13.662 2°55.961 -999 2.337472 16.132135 -1.453281
2009-03-13 08:08:17 51°13.662 2°55.961 -999 2.337472 16.132135 -1.453281
2009-03-13 08:08:23 51°13.662 2°55.96 -999 2.337368 16.131355 -1.453281
2009-03-13 08:08:28 51°13.662 2°55.96 -999 2.337368 16.131054 -1.453281
2009-03-13 08:08:32 51°13.662 2°55.96 -999 2.337368 16.131054 -1.453281
2009-03-13 08:08:37 51°13.662 2°55.96 -999 2.337368 16.131054 -1.453281
2009-03-13 08:08:43 51°13.662 2°55.96 -999 2.337368 16.130752 -1.453281
2009-03-13 08:08:48 51°13.662 2°55.96 -999 2.337368 16.130752 -1.453281
2009-03-13 08:08:52 51°13.662 2°55.96 -999 2.337368 16.130752 -1.453281
2009-03-13 08:08:57 51°13.662 2°55.96 -999 2.337368 16.130752 -1.453281
2009-03-13 08:09:03 51°13.662 2°55.96 -999 2.337368 16.130752 -1.453281
2009-03-13 08:09:08 51°13.662 2°55.96 -999 2.337368 16.130451 -1.453281
2009-03-13 08:09:12 51°13.662 2°55.96 -999 2.337368 16.130451 -1.453281
2009-03-13 08:09:18 51°13.662 2°55.96 -999 2.337368 16.130451 -1.453281
2009-03-13 08:09:23 51°13.662 2°55.96 -999 2.337368 16.130451 -1.453281
2009-03-13 08:09:28 51°13.662 2°55.96 -999 2.337368 16.130451 -1.453281
2009-03-13 08:09:32 51°13.662 2°55.96 -999 2.337368 16.130451 -1.453281
2009-03-13 08:09:38 51°13.661 2°55.96 -999 2.337472 16.13093 -1.453281
2009-03-13 08:09:43 51°13.662 2°55.96 -999 2.337472 16.13093 -1.453281
2009-03-13 08:09:48 51°13.662 2°55.96 -999 2.337472 16.13093 -1.453281
2009-03-13 08:09:52 51°13.662 2°55.96 -999 2.337472 16.130628 -1.453281
2009-03-13 08:09:57 51°13.662 2°55.96 -999 2.337472 16.130628 -1.453281
2009-03-13 08:10:03 51°13.662 2°55.96 -999 2.337472 16.130628 -1.453281
2009-03-13 08:10:08 51°13.662 2°55.96 -999 2.337472 16.130628 -1.453281
2009-03-13 08:10:12 51°13.662 2°55.96 -999 2.337472 16.130628 -1.453281
2009-03-13 08:10:17 51°13.662 2°55.96 -999 2.337472 16.130628 -1.453281
2009-03-13 08:10:23 51°13.662 2°55.96 -999 2.337472 16.130327 -1.453281
2009-03-13 08:10:28 51°13.662 2°55.96 -999 2.337472 16.130327 -1.453281
2009-03-13 08:10:32 51°13.661 2°55.96 -999 2.337472 16.130327 -1.453281
2009-03-13 08:10:37 51°13.661 2°55.96 -999 2.337472 16.130025 -1.453281
2009-03-13 08:10:43 51°13.661 2°55.96 -999 2.337472 16.130025 -1.453281
2009-03-13 08:10:48 51°13.661 2°55.96 -999 2.337472 16.130025 -1.453281
2009-03-13 08:10:52 51°13.661 2°55.96 -999 2.337472 16.130025 -1.453281
2009-03-13 08:10:57 51°13.661 2°55.96 -999 2.337575 16.130806 -1.453281
2009-03-13 08:11:03 51°13.661 2°55.96 -999 2.337472 16.130025 -1.453281
2009-03-13 08:11:08 51°13.661 2°55.96 -999 2.337575 16.130504 -1.453281
2009-03-13 08:11:12 51°13.662 2°55.959 -999 2.336852 16.125043 -1.453281
2009-03-13 08:11:17 51°13.661 2°55.959 -999 2.336852 16.125043 -1.453281
2009-03-13 08:11:23 51°13.663 2°55.956 -999 2.334785 16.108537 -1.453281
2009-03-13 08:11:28 51°13.664 2°55.953 -999 2.335198 16.111356 -1.453281
2009-03-13 08:11:32 51°13.665 2°55.95 -999 2.334888 16.109317 -1.453281
2009-03-13 08:11:38 51°13.666 2°55.945 -999 2.336645 16.121976 -1.453281
2009-03-13 08:11:43 51°13.668 2°55.941 -999 2.336852 16.123536 -1.453281
2009-03-13 08:11:48 51°13.67 2°55.936 -999 2.336852 16.123536 -1.453281
2009-03-13 08:11:52 51°13.671 2°55.932 -999 2.336335 16.119334 -1.418457
2009-03-13 08:11:58 51°13.673 2°55.926 -999 2.336852 16.123536 -1.453281
2009-03-13 08:12:03 51°13.675 2°55.92 -999 2.337162 16.125877 -1.453281
2009-03-13 08:12:08 51°13.677 2°55.915 -999 2.337472 16.12882 -1.453281
2009-03-13 08:12:12 51°13.678 2°55.911 -999 2.337058 16.125699 -1.453281
2009-03-13 08:12:17 51°13.68 2°55.905 -999 2.337058 16.125699 -1.453281
2009-03-13 08:12:23 51°13.683 2°55.899 -999 2.337575 16.129901 -1.453281
2009-03-13 08:12:28 51°13.685 2°55.893 -999 2.337678 16.130983 -1.453281
2009-03-13 08:12:32 51°13.686 2°55.888 -999 2.336955 16.12522 -1.453281
2009-03-13 08:12:38 51°13.689 2°55.881 -999 2.337885 16.132242 -1.453281
2009-03-13 08:12:43 51°13.691 2°55.875 -999 2.337885 16.132242 -1.453281
2009-03-13 08:12:48 51°13.693 2°55.868 -999 2.337782 16.130859 -1.453281
2009-03-13 08:12:52 51°13.694 2°55.863 -999 2.337988 16.132419 -1.453281
2009-03-13 08:12:58 51°13.696 2°55.856 -999 2.337782 16.130557 -1.453281
2009-03-13 08:13:03 51°13.697 2°55.849 -999 2.337782 16.130557 -1.453281
2009-03-13 08:13:08 51°13.698 2°55.843 -999 2.337885 16.131036 -1.453281
2009-03-13 08:13:12 51°13.699 2°55.838 -999 2.337678 16.129476 -1.453281
2009-03-13 08:13:17 51°13.7 2°55.832 -999 2.337678 16.129476 -1.453281
2009-03-13 08:13:23 51°13.701 2°55.825 -999 2.337885 16.131036 -1.453281
2009-03-13 08:13:28 51°13.701 2°55.819 -999 2.337885 16.131036 -1.453281
2009-03-13 08:13:32 51°13.702 2°55.814 -999 2.337988 16.132419 -1.453281
2009-03-13 08:13:37 51°13.702 2°55.808 -999 2.337885 16.131639 -1.453281
2009-03-13 08:13:43 51°13.703 2°55.801 -999 2.337988 16.132419 -1.453281
2009-03-13 08:13:48 51°13.703 2°55.796 -999 2.337988 16.132419 -1.453281
2009-03-13 08:13:53 51°13.703 2°55.79 -999 2.338092 16.132597 -1.453281
2009-03-13 08:13:57 51°13.703 2°55.786 -999 2.338092 16.132295 -1.453281
2009-03-13 08:14:03 51°13.703 2°55.779 -999 2.338298 16.133554 -1.453281
2009-03-13 08:14:08 51°13.703 2°55.774 -999 2.338402 16.134033 -1.453281
2009-03-13 08:14:12 51°13.703 2°55.771 -999 2.340882 16.153662 -1.453281
2009-03-13 08:14:17 51°13.704 2°55.769 -999 2.340882 16.153662 -1.453281
2009-03-13 08:14:23 51°13.704 2°55.767 -999 2.340262 16.149282 -1.453281
2009-03-13 08:14:28 51°13.705 2°55.767 -999 2.339539 16.143821 -1.453281
2009-03-13 08:14:32 51°13.705 2°55.767 -999 2.339745 16.145683 -1.453281
2009-03-13 08:14:37 51°13.706 2°55.768 -999 2.339229 16.14148 -1.453281
2009-03-13 08:14:42 51°13.707 2°55.769 -999 2.338402 16.134334 -1.453281
2009-03-13 08:14:48 51°13.708 2°55.769 -999 2.338402 16.134334 -1.453281
2009-03-13 08:14:53 51°13.708 2°55.768 -999 2.337782 16.128749 -1.453281
2009-03-13 08:14:58 51°13.708 2°55.768 -999 2.337988 16.129707 -1.453281
2009-03-13 08:15:03 51°13.708 2°55.767 -999 2.337885 16.128626 -1.453281
2009-03-13 08:15:08 51°13.708 2°55.765 -999 2.337575 16.126587 -1.453281
2009-03-13 08:15:13 51°13.707 2°55.764 -999 2.338919 16.13733 -1.453281
2009-03-13 08:15:18 51°13.707 2°55.763 -999 2.338919 16.13733 -1.453281
2009-03-13 08:15:23 51°13.706 2°55.761 -999 2.338608 16.135292 -1.453281
2009-03-13 08:15:28 51°13.705 2°55.76 -999 2.338505 16.134511 -1.453281
2009-03-13 08:15:32 51°13.705 2°55.76 -999 2.339229 16.139972 -1.453281
2009-03-13 08:15:38 51°13.704 2°55.759 -999 3.619043 26.117563 -1.279161
2009-03-13 08:15:43 51°13.704 2°55.758 -999 4.647733 34.524282 -0.547855
2009-03-13 08:15:48 51°13.705 2°55.758 -999 4.647733 34.524282 -0.547855
2009-03-13 08:15:53 51°13.706 2°55.757 -999 4.633195 34.457267 0.113802
2009-03-13 08:15:58 51°13.707 2°55.757 -999 4.253565 31.4592 7.113436
2009-03-13 08:16:03 51°13.708 2°55.756 -999 4.489406 34.631997 9.690416
2009-03-13 08:16:08 51°13.709 2°55.755 -999 4.295016 34.486102 7.078612
2009-03-13 08:16:13 51°13.711 2°55.755 -999 3.860618 31.8651 11.257499
2009-03-13 08:16:18 51°13.713 2°55.754 -999 3.860618 31.8651 11.257499
2009-03-13 08:16:23 51°13.715 2°55.752 -999 3.727836 31.649605 15.680154
2009-03-13 08:16:28 51°13.718 2°55.75 -999 3.44372 29.809913 17.073116
2009-03-13 08:16:33 51°13.721 2°55.747 -999 3.304213 29.054651 17.316884
2009-03-13 08:16:38 51°13.725 2°55.743 -999 3.212991 28.551615 17.839245
2009-03-13 08:16:43 51°13.73 2°55.738 -999 3.152324 28.236441 18.605374
2009-03-13 08:16:48 51°13.735 2°55.733 -999 3.152324 28.236441 18.605374
2009-03-13 08:16:53 51°13.74 2°55.726 -999 3.088042 27.864821 19.475975
2009-03-13 08:16:58 51°13.747 2°55.719 -999 3.046537 27.626655 20.346577
2009-03-13 08:17:03 51°13.754 2°55.712 -999 3.026253 27.54919 21.112706
2009-03-13 08:17:08 51°13.761 2°55.704 -999 3.003381 27.41951 21.809187
2009-03-13 08:17:13 51°13.768 2°55.696 -999 2.978441 27.253735 22.2619
2009-03-13 08:17:18 51°13.776 2°55.688 -999 2.978441 27.253735 22.2619
2009-03-13 08:17:23 51°13.784 2°55.68 -999 2.973577 27.27519 22.958381
2009-03-13 08:17:28 51°13.793 2°55.672 -999 2.958469 27.2012 24.351343
2009-03-13 08:17:33 51°13.801 2°55.664 -999 2.946156 27.168534 25.465713
2009-03-13 08:17:38 51°13.81 2°55.655 -999 2.928151 27.054749 26.231842
2009-03-13 08:17:43 51°13.82 2°55.647 -999 2.922358 27.074997 27.276563
2009-03-13 08:17:48 51°13.829 2°55.639 -999 2.922358 27.074997 27.276563
2009-03-13 08:17:52 51°13.836 2°55.632 -999 2.911597 27.03684 27.868572
2009-03-13 08:17:58 51°13.848 2°55.622 -999 2.902699 27.023975 28.007869
2009-03-13 08:18:03 51°13.858 2°55.614 -999 2.908391 27.128834 28.216813
2009-03-13 08:18:08 51°13.869 2°55.606 -999 2.896388 27.041943 29.087414
2009-03-13 08:18:13 51°13.879 2°55.598 -999 2.896906 27.083207 29.366007
2009-03-13 08:18:18 51°13.89 2°55.59 -999 2.896906 27.083207 29.366007
2009-03-13 08:18:23 51°13.9 2°55.582 -999 2.891423 27.066182 29.958016
2009-03-13 08:18:28 51°13.911 2°55.574 -999 2.887285 27.067273 30.480376
2009-03-13 08:18:33 51°13.922 2°55.566 -999 2.891631 27.151238 31.037561
2009-03-13 08:18:38 51°13.933 2°55.558 -999 2.891011 27.192527 31.664394
2009-03-13 08:18:43 51°13.944 2°55.55 -999 2.894529 27.265502 31.942987
2009-03-13 08:18:48 51°13.955 2°55.543 -999 2.894529 27.265502 31.942987
2009-03-13 08:18:53 51°13.966 2°55.535 -999 2.892667 27.279136 32.186755
2009-03-13 08:18:58 51°13.978 2°55.527 -999 2.907464 27.459056 32.56982
2009-03-13 08:19:03 51°13.989 2°55.519 -999 2.917087 27.589833 32.778764
2009-03-13 08:19:08 51°14.001 2°55.511 -999 2.921434 27.658518 32.813588
2009-03-13 08:19:12 51°14.01 2°55.505 -999 2.921434 27.658518 32.813588
2009-03-13 08:19:18 51°14.024 2°55.495 -999 2.934679 27.823322 32.813588
2009-03-13 08:19:23 51°14.036 2°55.487 -999 2.94213 27.919711 32.674292
2009-03-13 08:19:28 51°14.047 2°55.479 -999 2.955686 28.075055 32.604644
2009-03-13 08:19:32 51°14.057 2°55.472 -999 2.957446 28.109862 32.534996
2009-03-13 08:19:38 51°14.071 2°55.462 -999 2.968312 28.236574 32.883236
2009-03-13 08:19:43 51°14.082 2°55.454 -999 2.977523 28.35809 33.196653
2009-03-13 08:19:48 51°14.094 2°55.445 -999 2.977523 28.35809 33.196653
2009-03-13 08:19:52 51°14.103 2°55.438 -999 2.985181 28.462772 33.440421
2009-03-13 08:19:57 51°14.114 2°55.428 -999 2.991909 28.555573 33.440421
2009-03-13 08:20:02 51°14.125 2°55.418 -999 2.99936 28.650853 33.231477
2009-03-13 08:20:07 51°14.136 2°55.408 -999 2.999671 28.662511 33.335949
2009-03-13 08:20:12 51°14.147 2°55.398 -999 2.991495 28.586914 33.057356
2009-03-13 08:20:16 51°14.156 2°55.389 -999 2.991495 28.586914 33.057356
2009-03-13 08:20:21 51°14.166 2°55.379 -999 2.980629 28.487461 32.883236
2009-03-13 08:20:26 51°14.177 2°55.368 -999 2.969245 28.367392 32.883236
2009-03-13 08:20:31 51°14.187 2°55.356 -999 2.963553 28.311905 32.91806
2009-03-13 08:20:36 51°14.197 2°55.344 -999 2.966347 28.347405 32.987708
2009-03-13 08:20:40 51°14.205 2°55.334 -999 2.968107 28.371251 33.161829
2009-03-13 08:20:45 51°14.215 2°55.322 -999 2.968107 28.371251 33.161829
2009-03-13 08:20:50 51°14.225 2°55.309 -999 2.964588 28.343949 33.196653
2009-03-13 08:20:55 51°14.234 2°55.295 -999 2.965209 28.35579 32.91806
2009-03-13 08:21:00 51°14.243 2°55.281 -999 2.96138 28.324442 33.022532
2009-03-13 08:21:05 51°14.252 2°55.268 -999 2.956724 28.276046 32.91806
2009-03-13 08:21:10 51°14.261 2°55.253 -999 2.952998 28.241251 33.301125
2009-03-13 08:21:15 51°14.269 2°55.238 -999 2.952998 28.241251 33.301125
2009-03-13 08:21:20 51°14.278 2°55.223 -999 2.941098 28.126947 33.370773
2009-03-13 08:21:24 51°14.284 2°55.211 -999 2.955792 28.290356 33.335949
2009-03-13 08:21:29 51°14.292 2°55.195 -999 2.961898 28.354098 33.370773
2009-03-13 08:21:34 51°14.301 2°55.18 -999 2.972454 28.467165 33.719013
2009-03-13 08:21:39 51°14.309 2°55.165 -999 2.981457 28.566173 33.788661
2009-03-13 08:21:44 51°14.317 2°55.149 -999 2.981457 28.566173 33.788661
2009-03-13 08:21:48 51°14.324 2°55.136 -999 2.985804 28.615207 33.893134
2009-03-13 08:21:54 51°14.333 2°55.117 -999 2.995015 28.720348 34.345846
2009-03-13 08:21:59 51°14.341 2°55.101 -999 3.011885 28.907521 34.554791
2009-03-13 08:22:04 51°14.349 2°55.084 -999 3.026789 29.067874 35.042327
2009-03-13 08:22:09 51°14.357 2°55.068 -999 3.036207 29.173261 35.251272
2009-03-13 08:22:14 51°14.365 2°55.051 -999 3.036207 29.173261 35.251272
2009-03-13 08:22:19 51°14.373 2°55.035 -999 3.053699 29.362143 35.773633
2009-03-13 08:22:24 51°14.381 2°55.018 -999 3.066845 29.505789 35.878105
2009-03-13 08:22:29 51°14.389 2°55.001 -999 3.093965 29.798302 36.052225
2009-03-13 08:22:34 51°14.397 2°54.984 -999 3.111459 29.989456 36.504938
2009-03-13 08:22:39 51°14.405 2°54.967 -999 3.129058 30.176284 36.818354
2009-03-13 08:22:44 51°14.413 2°54.949 -999 3.129058 30.176284 36.818354
2009-03-13 08:22:49 51°14.421 2°54.931 -999 3.146036 30.353385 37.027298
2009-03-13 08:22:54 51°14.43 2°54.913 -999 3.163946 30.539724 37.096947
2009-03-13 08:22:59 51°14.438 2°54.894 -999 3.176991 30.672529 37.096947
2009-03-13 08:23:04 51°14.447 2°54.875 -999 3.183307 30.735909 37.131771
2009-03-13 08:23:09 51°14.455 2°54.855 -999 3.198319 30.895568 37.271067
2009-03-13 08:23:14 51°14.464 2°54.835 -999 3.198319 30.895568 37.271067
2009-03-13 08:23:19 51°14.473 2°54.815 -999 3.206395 30.985259 37.375539
2009-03-13 08:23:24 51°14.482 2°54.794 -999 3.204428 30.968354 37.514835
2009-03-13 08:23:29 51°14.492 2°54.773 -999 3.224412 31.192269 37.584483
2009-03-13 08:23:34 51°14.501 2°54.752 -999 3.23021 31.262759 37.654131
2009-03-13 08:23:39 51°14.512 2°54.732 -999 3.241186 31.388832 37.828252
2009-03-13 08:23:44 51°14.522 2°54.711 -999 3.241186 31.388832 37.828252
2009-03-13 08:23:48 51°14.53 2°54.694 -999 3.250402 31.494454 37.72378
2009-03-13 08:23:54 51°14.543 2°54.668 -999 3.250609 31.50427 37.549659
2009-03-13 08:23:59 51°14.553 2°54.647 -999 3.25879 31.59804 37.131771
2009-03-13 08:24:04 51°14.564 2°54.626 -999 3.262932 31.645083 36.400466
2009-03-13 08:24:09 51°14.574 2°54.605 -999 3.267385 31.703979 35.564688
2009-03-13 08:24:14 51°14.585 2°54.584 -999 3.267385 31.703979 35.564688
2009-03-13 08:24:19 51°14.595 2°54.563 -999 3.271527 31.757031 34.554791
2009-03-13 08:24:24 51°14.606 2°54.541 -999 3.278879 31.841252 33.823486
2009-03-13 08:24:29 51°14.616 2°54.52 -999 3.286957 31.93419 33.127004
2009-03-13 08:24:34 51°14.625 2°54.497 -999 3.295863 32.030108 32.534996
2009-03-13 08:24:39 51°14.635 2°54.475 -999 3.30363 32.115514 32.256403
2009-03-13 08:24:44 51°14.644 2°54.452 -999 3.30363 32.115514 32.256403
2009-03-13 08:24:49 51°14.654 2°54.429 -999 3.319578 32.288317 32.047459
2009-03-13 08:24:54 51°14.663 2°54.406 -999 3.333042 32.431824 31.908163
2009-03-13 08:24:59 51°14.672 2°54.383 -999 3.341742 32.522231 31.699218
2009-03-13 08:25:04 51°14.681 2°54.359 -999 3.353445 32.645966 31.385802
2009-03-13 08:25:09 51°14.69 2°54.336 -999 3.364113 32.761199 30.933089
2009-03-13 08:25:14 51°14.698 2°54.312 -999 3.364113 32.761199 30.933089
2009-03-13 08:25:19 51°14.706 2°54.288 -999 3.373228 32.861461 31.002737
2009-03-13 08:25:24 51°14.715 2°54.264 -999 3.383896 32.979466 30.584849
2009-03-13 08:25:29 51°14.722 2°54.24 -999 3.391147 33.059673 30.34108
2009-03-13 08:25:34 51°14.73 2°54.216 -999 3.398294 33.138795 30.027664
2009-03-13 08:25:39 51°14.737 2°54.191 -999 3.402748 33.188793 29.714247
2009-03-13 08:25:44 51°14.744 2°54.166 -999 3.402748 33.188793 29.714247
2009-03-13 08:25:49 51°14.75 2°54.141 -999 3.409377 33.261471 29.122238
2009-03-13 08:25:54 51°14.757 2°54.116 -999 3.414038 33.31196 28.913294
2009-03-13 08:25:59 51°14.762 2°54.09 -999 3.417871 33.356169 28.948118
2009-03-13 08:26:04 51°14.768 2°54.065 -999 3.418389 33.361781 28.634702
2009-03-13 08:26:09 51°14.774 2°54.039 -999 3.424811 33.431383 28.982942
2009-03-13 08:26:14 51°14.78 2°54.014 -999 3.424811 33.431383 28.982942
2009-03-13 08:26:19 51°14.786 2°53.988 -999 3.426779 33.451818 28.70435
2009-03-13 08:26:24 51°14.791 2°53.963 -999 3.432891 33.521677 28.425757
2009-03-13 08:26:29 51°14.797 2°53.937 -999 3.432995 33.523701 28.007869
2009-03-13 08:26:34 51°14.802 2°53.912 -999 3.437346 33.571788 27.58998
2009-03-13 08:26:39 51°14.808 2°53.886 -999 3.437449 33.573813 27.067619
2009-03-13 08:26:44 51°14.813 2°53.86 -999 3.437449 33.573813 27.067619
2009-03-13 08:26:49 51°14.818 2°53.834 -999 3.4418 33.621914 26.64973
2009-03-13 08:26:54 51°14.823 2°53.808 -999 3.443457 33.639897 26.47561
2009-03-13 08:26:59 51°14.829 2°53.783 -999 3.445736 33.665531 26.162194
2009-03-13 08:27:04 51°14.834 2°53.757 -999 3.447498 33.686452 25.988073
2009-03-13 08:27:09 51°14.839 2°53.731 -999 3.447912 33.691854 26.266666
2009-03-13 08:27:14 51°14.844 2°53.705 -999 3.447912 33.691854 26.266666
2009-03-13 08:27:19 51°14.848 2°53.679 -999 3.450709 33.724025 26.092546
2009-03-13 08:27:24 51°14.85 2°53.651 -999 3.451745 33.736178 26.162194
2009-03-13 08:27:29 51°14.852 2°53.625 -999 3.451848 33.736396 25.779129
2009-03-13 08:27:34 51°14.852 2°53.597 -999 3.454749 33.768795 25.883601
2009-03-13 08:27:39 51°14.852 2°53.57 -999 3.452263 33.742708 25.465713
2009-03-13 08:27:44 51°14.85 2°53.543 -999 3.452263 33.742708 25.465713
2009-03-13 08:27:49 51°14.848 2°53.515 -999 3.456821 33.795832 25.082648
2009-03-13 08:27:53 51°14.847 2°53.493 -999 3.458997 33.824914 25.152296
2009-03-13 08:27:59 51°14.843 2°53.461 -999 3.459204 33.830801 24.699583
2009-03-13 08:28:04 51°14.84 2°53.433 -999 3.457961 33.819113 24.455815
2009-03-13 08:28:09 51°14.837 2°53.406 -999 3.459515 33.835997 24.07275
2009-03-13 08:28:13 51°14.835 2°53.384 -999 3.459515 33.835997 24.07275
2009-03-13 08:28:19 51°14.83 2°53.351 -999 3.458893 33.829243 23.585214
2009-03-13 08:28:24 51°14.827 2°53.324 -999 3.461172 33.854917 22.923557
2009-03-13 08:28:29 51°14.823 2°53.296 -999 3.46169 33.861456 22.540492
2009-03-13 08:28:34 51°14.82 2°53.269 -999 3.465005 33.897483 22.122603
2009-03-13 08:28:39 51°14.816 2°53.241 -999 3.465316 33.902684 21.844011
2009-03-13 08:28:44 51°14.813 2°53.214 -999 3.465316 33.902684 21.844011
2009-03-13 08:28:48 51°14.811 2°53.192 -999 3.464487 33.894587 21.774363
2009-03-13 08:28:54 51°14.806 2°53.159 -999 3.466456 33.915071 21.565419
2009-03-13 08:28:59 51°14.803 2°53.131 -999 3.466248 33.911907 21.460946
2009-03-13 08:29:04 51°14.8 2°53.104 -999 3.46687 33.91684 21.426122
2009-03-13 08:29:08 51°14.798 2°53.082 -999 3.467699 33.928584 21.286826
2009-03-13 08:29:14 51°14.795 2°53.049 -999 3.467699 33.928584 21.286826
2009-03-13 08:29:19 51°14.793 2°53.022 -999 3.468113 33.935826 21.182354
2009-03-13 08:29:24 51°14.791 2°52.994 -999 3.469149 33.949827 21.043058
2009-03-13 08:29:29 51°14.788 2°52.966 -999 3.469149 33.952566 21.077882
2009-03-13 08:29:34 51°14.787 2°52.939 -999 3.469874 33.958625 21.14753
2009-03-13 08:29:39 51°14.784 2°52.911 -999 3.469667 33.953634 21.008234
2009-03-13 08:29:44 51°14.783 2°52.884 -999 3.469667 33.953634 21.008234
2009-03-13 08:29:49 51°14.781 2°52.856 -999 3.470289 33.961305 20.97341
2009-03-13 08:29:54 51°14.779 2°52.828 -999 3.470599 33.965598 20.799289
2009-03-13 08:29:59 51°14.777 2°52.801 -999 3.470703 33.967638 20.625169
2009-03-13 08:30:04 51°14.775 2°52.773 -999 3.471014 33.971017 20.520697
2009-03-13 08:30:08 51°14.774 2°52.751 -999 3.471325 33.975311 20.451049
2009-03-13 08:30:14 51°14.772 2°52.717 -999 3.471325 33.975311 20.451049
2009-03-13 08:30:19 51°14.77 2°52.689 -999 3.469874 33.962278 20.346577
2009-03-13 08:30:24 51°14.769 2°52.662 -999 3.471532 33.980305 20.242105
2009-03-13 08:30:28 51°14.768 2°52.639 -999 3.47091 33.973545 20.102808
2009-03-13 08:30:34 51°14.766 2°52.606 -999 3.47205 33.985939 20.137632
2009-03-13 08:30:39 51°14.764 2°52.578 -999 3.471946 33.984812 19.754568
2009-03-13 08:30:44 51°14.763 2°52.55 -999 3.471946 33.984812 19.754568
2009-03-13 08:30:48 51°14.762 2°52.528 -999 3.472775 33.99474 19.650096
2009-03-13 08:30:54 51°14.761 2°52.494 -999 3.472982 33.996994 19.545624
2009-03-13 08:30:59 51°14.759 2°52.467 -999 3.473293 34.000374 19.475975
2009-03-13 08:31:04 51°14.758 2°52.439 -999 3.472568 33.993401 19.475975
2009-03-13 08:31:08 51°14.757 2°52.417 -999 3.472671 33.991785 19.580448
2009-03-13 08:31:14 51°14.755 2°52.383 -999 3.472671 33.991785 19.580448
2009-03-13 08:31:19 51°14.754 2°52.355 -999 3.4735 34.000799 19.406327
2009-03-13 08:31:24 51°14.752 2°52.327 -999 3.474433 34.011855 19.371503
2009-03-13 08:31:29 51°14.751 2°52.299 -999 3.474433 34.013684 19.197383
2009-03-13 08:31:34 51°14.75 2°52.271 -999 3.475158 34.020658 19.023263
2009-03-13 08:31:39 51°14.749 2°52.244 -999 3.475158 34.020658 19.023263
2009-03-13 08:31:44 51°14.748 2°52.215 -999 3.472775 33.992912 19.023263
2009-03-13 08:31:49 51°14.747 2°52.188 -999 3.472568 33.992486 18.74467
2009-03-13 08:31:54 51°14.746 2°52.159 -999 3.473707 34.004882 18.74467
2009-03-13 08:31:59 51°14.746 2°52.131 -999 3.475676 34.025378 18.675022
2009-03-13 08:32:04 51°14.745 2°52.103 -999 3.474536 34.013897 18.500902
2009-03-13 08:32:09 51°14.745 2°52.075 -999 3.475054 34.020446 18.640198
2009-03-13 08:32:14 51°14.744 2°52.047 -999 3.475054 34.020446 18.640198
2009-03-13 08:32:19 51°14.743 2°52.019 -999 3.476505 34.036224 18.675022
2009-03-13 08:32:24 51°14.743 2°51.99 -999 3.474536 34.015726 18.814318
2009-03-13 08:32:28 51°14.742 2°51.968 -999 3.473811 34.007838 18.779494
2009-03-13 08:32:34 51°14.742 2°51.934 -999 3.476505 34.03897 18.709846
2009-03-13 08:32:39 51°14.741 2°51.906 -999 3.47868 34.06539 18.953615
2009-03-13 08:32:44 51°14.74 2°51.878 -999 3.47868 34.06539 18.953615
2009-03-13 08:32:48 51°14.739 2°51.855 -999 3.478059 34.058626 19.058087
2009-03-13 08:32:54 51°14.738 2°51.821 -999 3.47868 34.067223 18.849142
2009-03-13 08:32:59 51°14.736 2°51.793 -999 3.477334 34.053483 18.779494
2009-03-13 08:33:04 51°14.735 2°51.765 -999 3.478266 34.062713 18.953615
2009-03-13 08:33:08 51°14.734 2°51.742 -999 3.47723 34.052356 19.058087
2009-03-13 08:33:14 51°14.733 2°51.708 -999 3.47723 34.052356 19.058087
2009-03-13 08:33:19 51°14.732 2°51.68 -999 3.477437 34.053695 18.988439
2009-03-13 08:33:24 51°14.731 2°51.651 -999 3.475572 34.034319 19.058087
2009-03-13 08:33:28 51°14.731 2°51.629 -999 3.479302 34.076738 18.953615
2009-03-13 08:33:34 51°14.73 2°51.595 -999 3.479613 34.08012 18.988439
2009-03-13 08:33:39 51°14.73 2°51.567 -999 3.478266 34.066379 18.953615
2009-03-13 08:33:44 51°14.73 2°51.539 -999 3.478266 34.066379 18.953615
2009-03-13 08:33:49 51°14.732 2°51.51 -999 3.47982 34.084209 18.675022
2009-03-13 08:33:54 51°14.733 2°51.482 -999 3.479924 34.085337 18.709846
2009-03-13 08:33:59 51°14.735 2°51.454 -999 3.480027 34.086464 18.675022
2009-03-13 08:34:04 51°14.736 2°51.427 -999 3.479509 34.080826 18.814318
2009-03-13 08:34:09 51°14.739 2°51.399 -999 3.480027 34.086464 18.988439
2009-03-13 08:34:14 51°14.741 2°51.371 -999 3.480027 34.086464 18.988439
2009-03-13 08:34:19 51°14.744 2°51.343 -999 3.480131 34.088509 18.953615
2009-03-13 08:34:24 51°14.746 2°51.315 -999 3.480027 34.088299 19.162559
2009-03-13 08:34:28 51°14.748 2°51.293 -999 3.480338 34.094434 19.023263
2009-03-13 08:34:34 51°14.751 2°51.259 -999 3.480338 34.095352 19.232207
2009-03-13 08:34:39 51°14.754 2°51.231 -999 3.480338 34.098104 19.267031
2009-03-13 08:34:44 51°14.757 2°51.203 -999 3.480338 34.098104 19.267031
2009-03-13 08:34:49 51°14.759 2°51.175 -999 3.480338 34.100857 19.371503
2009-03-13 08:34:54 51°14.762 2°51.147 -999 3.480131 34.102273 19.127735
2009-03-13 08:34:59 51°14.765 2°51.119 -999 3.480235 34.105237 19.127735
2009-03-13 08:35:04 51°14.768 2°51.091 -999 3.479924 34.101853 19.023263
2009-03-13 08:35:09 51°14.77 2°51.063 -999 3.479924 34.101853 19.058087
2009-03-13 08:35:14 51°14.773 2°51.037 -999 3.479924 34.101853 19.058087
2009-03-13 08:35:19 51°14.775 2°51.012 -999 3.47982 34.101642 18.779494
2009-03-13 08:35:24 51°14.777 2°50.989 -999 3.479924 34.103689 18.918791
2009-03-13 08:35:28 51°14.778 2°50.971 -999 3.480027 34.106653 18.500902
2009-03-13 08:35:34 51°14.78 2°50.946 -999 3.480027 34.109408 18.466078
2009-03-13 08:35:39 51°14.782 2°50.926 -999 3.480027 34.111245 18.257134
2009-03-13 08:35:44 51°14.783 2°50.908 -999 3.480027 34.111245 18.257134
2009-03-13 08:35:48 51°14.784 2°50.894 -999 3.480027 34.114001 17.943717
2009-03-13 08:35:54 51°14.785 2°50.874 -999 3.479924 34.113791 17.734773
2009-03-13 08:35:59 51°14.785 2°50.859 -999 3.479924 34.117466 17.386532
2009-03-13 08:36:04 51°14.784 2°50.844 -999 3.479924 34.120223 17.28206
2009-03-13 08:36:09 51°14.783 2°50.83 -999 3.47982 34.121852 17.142764
2009-03-13 08:36:14 51°14.781 2°50.817 -999 3.47982 34.121852 17.142764
2009-03-13 08:36:19 51°14.779 2°50.805 -999 3.479199 34.118755 16.759699
2009-03-13 08:36:24 51°14.776 2°50.793 -999 3.479613 34.126949 16.585579
2009-03-13 08:36:29 51°14.773 2°50.782 -999 3.479406 34.128369 16.306987
2009-03-13 08:36:34 51°14.77 2°50.772 -999 3.479406 34.131128 16.272162
2009-03-13 08:36:39 51°14.767 2°50.762 -999 3.479199 34.131629 15.923922
2009-03-13 08:36:44 51°14.765 2°50.754 -999 3.479199 34.131629 15.923922
2009-03-13 08:36:48 51°14.763 2°50.748 -999 3.479095 34.133259 15.749802
2009-03-13 08:36:54 51°14.76 2°50.74 -999 3.478888 34.130081 15.610505
2009-03-13 08:36:59 51°14.757 2°50.733 -999 3.478059 34.121045 15.331913
2009-03-13 08:37:04 51°14.755 2°50.727 -999 3.477956 34.118077 15.088145
2009-03-13 08:37:09 51°14.752 2°50.722 -999 3.479095 34.1305 14.635432
2009-03-13 08:37:14 51°14.75 2°50.717 -999 3.479095 34.1305 14.635432
2009-03-13 08:37:19 51°14.747 2°50.712 -999 3.478577 34.124853 14.774728
2009-03-13 08:37:24 51°14.745 2°50.708 -999 3.478992 34.125691 17.525828
2009-03-13 08:37:28 51°14.744 2°50.705 -999 3.473397 34.063801 16.341811
2009-03-13 08:37:34 51°14.742 2°50.701 -999 3.461069 33.922185 14.600608
2009-03-13 08:37:39 51°14.74 2°50.698 -999 3.45216 33.799702 14.287191
2009-03-13 08:37:44 51°14.739 2°50.696 -999 3.45216 33.799702 14.287191
2009-03-13 08:37:48 51°14.738 2°50.693 -999 3.454957 33.799194 14.147895
2009-03-13 08:37:54 51°14.736 2°50.69 -999 3.450294 33.714093 13.973775
2009-03-13 08:37:59 51°14.735 2°50.688 -999 3.458685 33.767095 13.764831
2009-03-13 08:38:04 51°14.733 2°50.685 -999 3.454955 33.693211 13.695182
2009-03-13 08:38:08 51°14.732 2°50.683 -999 3.457545 33.678855 13.59071
2009-03-13 08:38:14 51°14.73 2°50.68 -999 3.457545 33.678855 13.59071
2009-03-13 08:38:19 51°14.729 2°50.677 -999 3.469665 33.781113 13.486238
2009-03-13 08:38:24 51°14.727 2°50.674 -999 3.469872 33.747267 13.486238
2009-03-13 08:38:29 51°14.726 2°50.672 -999 3.480749 33.83231 13.695182
2009-03-13 08:38:34 51°14.724 2°50.669 -999 3.484375 33.836273 13.695182
2009-03-13 08:38:39 51°14.723 2°50.667 -999 3.490902 33.884139 13.555886
2009-03-13 08:38:44 51°14.722 2°50.665 -999 3.490902 33.884139 13.555886
2009-03-13 08:38:49 51°14.72 2°50.663 -999 3.494113 33.919687 13.555886
2009-03-13 08:38:54 51°14.719 2°50.66 -999 3.495046 33.946018 13.660358
2009-03-13 08:38:59 51°14.717 2°50.658 -999 3.492663 33.941098 13.764831
2009-03-13 08:39:04 51°14.716 2°50.655 -999 3.49401 33.983731 13.799655
2009-03-13 08:39:08 51°14.715 2°50.654 -999 3.496704 34.036465 13.799655
2009-03-13 08:39:14 51°14.713 2°50.651 -999 3.496704 34.036465 13.799655
2009-03-13 08:39:19 51°14.712 2°50.649 -999 3.495047 34.043991 13.660358
2009-03-13 08:39:24 51°14.711 2°50.647 -999 3.490489 34.01283 13.799655
2009-03-13 08:39:29 51°14.709 2°50.644 -999 3.490489 34.033764 14.322015
2009-03-13 08:39:34 51°14.708 2°50.642 -999 3.487692 34.022576 15.088145
2009-03-13 08:39:39 51°14.706 2°50.64 -999 3.48821 34.046426 15.331913
2009-03-13 08:39:44 51°14.705 2°50.638 -999 3.48821 34.046426 15.331913
2009-03-13 08:39:48 51°14.704 2°50.637 -999 3.484791 34.025756 15.610505
2009-03-13 08:39:54 51°14.702 2°50.634 -999 3.486656 34.060601 15.889098
2009-03-13 08:39:59 51°14.701 2°50.632 -999 3.48013 34.002523 16.272162
2009-03-13 08:40:04 51°14.7 2°50.63 -999 3.486553 34.088734 16.446283
2009-03-13 08:40:08 51°14.699 2°50.629 -999 3.483342 34.064815 16.515931
2009-03-13 08:40:14 51°14.697 2°50.626 -999 3.483342 34.064815 16.515931
2009-03-13 08:40:19 51°14.696 2°50.625 -999 3.485621 34.100575 16.620403
2009-03-13 08:40:24 51°14.694 2°50.622 -999 3.484896 34.099103 16.864171
2009-03-13 08:40:29 51°14.693 2°50.62 -999 3.482202 34.078972 17.142764
2009-03-13 08:40:34 51°14.691 2°50.619 -999 3.48386 34.105251 17.177588
2009-03-13 08:40:39 51°14.69 2°50.616 -999 3.481581 34.085039 17.073116
2009-03-13 08:40:44 51°14.689 2°50.615 -999 3.481581 34.085039 17.073116
2009-03-13 08:40:49 51°14.688 2°50.613 -999 3.478577 34.05785 16.968644
2009-03-13 08:40:54 51°14.686 2°50.611 -999 3.479198 34.071943 16.724875
2009-03-13 08:40:59 51°14.685 2°50.609 -999 3.477541 34.05757 16.550755
2009-03-13 08:41:04 51°14.684 2°50.607 -999 3.47837 34.068423 16.515931
2009-03-13 08:41:09 51°14.682 2°50.605 -999 3.480234 34.093306 16.411459
2009-03-13 08:41:14 51°14.681 2°50.603 -999 3.480234 34.093306 16.411459
2009-03-13 08:41:19 51°14.68 2°50.6 -999 3.479716 34.090419 16.690051
2009-03-13 08:41:24 51°14.679 2°50.599 -999 3.476505 34.059125 16.585579
2009-03-13 08:41:28 51°14.678 2°50.597 -999 3.480856 34.11017 16.655227
2009-03-13 08:41:34 51°14.676 2°50.595 -999 3.477852 34.082043 16.341811
2009-03-13 08:41:39 51°14.675 2°50.593 -999 3.478473 34.092483 15.923922
2009-03-13 08:41:44 51°14.674 2°50.591 -999 3.478473 34.092483 15.923922
2009-03-13 08:41:49 51°14.672 2°50.589 -999 3.475676 34.062021 15.923922
2009-03-13 08:41:54 51°14.671 2°50.587 -999 3.476609 34.074009 15.923922
2009-03-13 08:41:59 51°14.67 2°50.585 -999 3.474951 34.057792 15.889098
2009-03-13 08:42:04 51°14.669 2°50.583 -999 3.479199 34.105891 15.714978
2009-03-13 08:42:08 51°14.668 2°50.582 -999 3.478163 34.096443 15.749802
2009-03-13 08:42:14 51°14.666 2°50.579 -999 3.478163 34.096443 15.749802
2009-03-13 08:42:19 51°14.665 2°50.578 -999 3.47837 34.101455 15.680154
2009-03-13 08:42:24 51°14.664 2°50.576 -999 3.480028 34.120433 15.680154
2009-03-13 08:42:28 51°14.663 2°50.574 -999 3.47578 34.075994 15.889098
2009-03-13 08:42:34 51°14.661 2°50.572 -999 3.480649 34.129044 16.098042
2009-03-13 08:42:39 51°14.66 2°50.57 -999 3.47723 34.092713 16.063218
2009-03-13 08:42:44 51°14.659 2°50.568 -999 3.47723 34.092713 16.063218
2009-03-13 08:42:49 51°14.657 2°50.567 -999 3.478474 34.108096 15.99357
2009-03-13 08:42:54 51°14.656 2°50.565 -999 3.478266 34.104919 15.889098
2009-03-13 08:42:59 51°14.655 2°50.563 -999 3.475469 34.07628 15.889098
2009-03-13 08:43:04 51°14.653 2°50.561 -999 3.476712 34.090743 15.714978
2009-03-13 08:43:09 51°14.651 2°50.559 -999 3.475987 34.084678 15.436385
2009-03-13 08:43:14 51°14.65 2°50.557 -999 3.475987 34.084678 15.436385
2009-03-13 08:43:19 51°14.648 2°50.555 -999 3.476402 34.091949 15.436385
2009-03-13 08:43:24 51°14.646 2°50.553 -999 3.476091 34.08948 15.366737
2009-03-13 08:43:28 51°14.645 2°50.552 -999 3.47692 34.098512 15.192617
2009-03-13 08:43:34 51°14.642 2°50.55 -999 3.477438 34.103238 15.227441
2009-03-13 08:43:39 51°14.64 2°50.548 -999 3.478266 34.111351 15.331913
2009-03-13 08:43:44 51°14.638 2°50.546 -999 3.478266 34.111351 15.331913
2009-03-13 08:43:49 51°14.635 2°50.545 -999 3.477334 34.101191 15.157793
2009-03-13 08:43:54 51°14.633 2°50.543 -999 3.478992 34.118335 14.844376
2009-03-13 08:43:59 51°14.631 2°50.542 -999 3.477127 34.098014 14.600608
2009-03-13 08:44:04 51°14.628 2°50.541 -999 3.478888 34.116287 14.252367
2009-03-13 08:44:09 51°14.626 2°50.54 -999 3.479613 34.122352 14.008599
2009-03-13 08:44:14 51°14.623 2°50.539 -999 3.479613 34.122352 14.008599
2009-03-13 08:44:19 51°14.621 2°50.538 -999 3.478059 34.105418 13.625534
2009-03-13 08:44:24 51°14.618 2°50.537 -999 3.479095 34.115788 13.346942
2009-03-13 08:44:29 51°14.616 2°50.536 -999 3.478163 34.106547 13.277294
2009-03-13 08:44:34 51°14.613 2°50.536 -999 3.476505 34.089404 13.137998
2009-03-13 08:44:39 51°14.611 2°50.536 -999 3.477023 34.095966 13.137998
2009-03-13 08:44:44 51°14.608 2°50.536 -999 3.477023 34.095966 13.137998
2009-03-13 08:44:48 51°14.607 2°50.536 -999 3.480753 34.13753 13.41659
2009-03-13 08:44:54 51°14.604 2°50.536 -999 3.481374 34.144304 13.660358
2009-03-13 08:44:59 51°14.602 2°50.536 -999 3.481271 34.145015 14.078247
2009-03-13 08:45:04 51°14.599 2°50.537 -999 3.481271 34.145015 14.147895
2009-03-13 08:45:09 51°14.597 2°50.537 -999 3.481167 34.145726 14.252367
2009-03-13 08:45:14 51°14.595 2°50.538 -999 3.481167 34.145726 14.252367
2009-03-13 08:45:19 51°14.594 2°50.539 -999 3.481167 34.145726 14.426488
2009-03-13 08:45:24 51°14.592 2°50.54 -999 3.481064 34.145517 14.670256
2009-03-13 08:45:29 51°14.59 2°50.54 -999 3.48096 34.145308 14.809552
2009-03-13 08:45:34 51°14.588 2°50.541 -999 3.480857 34.144178 15.053321
2009-03-13 08:45:39 51°14.587 2°50.543 -999 3.480857 34.146019 15.297089
2009-03-13 08:45:44 51°14.585 2°50.544 -999 3.480857 34.146019 15.297089
2009-03-13 08:45:48 51°14.584 2°50.545 -999 3.480857 34.146019 15.471209
2009-03-13 08:45:54 51°14.582 2°50.546 -999 3.480131 34.138113 15.471209
2009-03-13 08:45:59 51°14.581 2°50.548 -999 3.480649 34.1456 15.366737
2009-03-13 08:46:04 51°14.58 2°50.549 -999 3.480649 34.1456 15.157793
2009-03-13 08:46:09 51°14.579 2°50.551 -999 3.480649 34.1456 15.157793
2009-03-13 08:46:14 51°14.579 2°50.554 -999 3.480649 34.1456 15.157793
2009-03-13 08:46:19 51°14.578 2°50.556 -999 3.480546 34.144471 15.366737
2009-03-13 08:46:24 51°14.578 2°50.558 -999 3.480649 34.14468 14.983672
2009-03-13 08:46:29 51°14.578 2°50.56 -999 3.480649 34.14284 14.948848
2009-03-13 08:46:34 51°14.578 2°50.562 -999 3.480028 34.136984 15.297089
2009-03-13 08:46:39 51°14.579 2°50.565 -999 3.480649 34.14376 15.053321
2009-03-13 08:46:44 51°14.58 2°50.568 -999 3.480649 34.14376 15.053321
2009-03-13 08:46:48 51°14.58 2°50.57 -999 3.480546 34.143551 14.809552
2009-03-13 08:46:54 51°14.582 2°50.574 -999 3.480546 34.142631 14.70508
2009-03-13 08:46:59 51°14.583 2°50.577 -999 3.480546 34.141711 14.635432
2009-03-13 08:47:04 51°14.585 2°50.58 -999 3.480649 34.14192 14.356839
2009-03-13 08:47:08 51°14.586 2°50.582 -999 3.480649 34.14192 14.53096
2009-03-13 08:47:14 51°14.589 2°50.586 -999 3.480649 34.14192 14.53096
2009-03-13 08:47:19 51°14.591 2°50.589 -999 3.480649 34.141 14.461312
2009-03-13 08:47:24 51°14.594 2°50.592 -999 3.480649 34.14192 14.53096
2009-03-13 08:47:29 51°14.596 2°50.596 -999 3.480649 34.141 14.496136
2009-03-13 08:47:34 51°14.599 2°50.6 -999 3.480649 34.141 14.252367
2009-03-13 08:47:39 51°14.602 2°50.604 -999 3.480649 34.14192 13.625534
2009-03-13 08:47:44 51°14.605 2°50.609 -999 3.480649 34.14192 13.625534
2009-03-13 08:47:49 51°14.608 2°50.613 -999 3.466249 33.984086 12.929053
2009-03-13 08:47:54 51°14.611 2°50.618 -999 3.479302 34.1254 12.337044
2009-03-13 08:47:59 51°14.614 2°50.623 -999 3.477438 34.104157 11.919156
2009-03-13 08:48:04 51°14.618 2°50.628 -999 3.478888 34.118126 12.093276
2009-03-13 08:48:08 51°14.621 2°50.631 -999 3.478059 34.109093 12.511165
2009-03-13 08:48:14 51°14.625 2°50.636 -999 3.478059 34.109093 12.511165
2009-03-13 08:48:19 51°14.63 2°50.641 -999 3.478681 34.116787 12.824581
2009-03-13 08:48:24 51°14.634 2°50.645 -999 3.478784 34.118835 13.137998
2009-03-13 08:48:29 51°14.639 2°50.649 -999 3.478992 34.122013 13.451414
2009-03-13 08:48:34 51°14.644 2°50.653 -999 3.480131 34.135354 13.41659
2009-03-13 08:48:39 51°14.648 2°50.657 -999 3.480649 34.14192 13.103174
2009-03-13 08:48:44 51°14.653 2°50.661 -999 3.480649 34.14192 13.103174
2009-03-13 08:48:48 51°14.657 2°50.665 -999 3.480339 34.139452 13.381766
2009-03-13 08:48:54 51°14.663 2°50.67 -999 3.479613 34.132467 13.486238
2009-03-13 08:48:59 51°14.668 2°50.675 -999 3.480442 34.142421 13.033525
2009-03-13 08:49:04 51°14.673 2°50.679 -999 3.480546 34.143551 12.476341
2009-03-13 08:49:08 51°14.677 2°50.682 -999 3.480546 34.142631 12.30222
2009-03-13 08:49:14 51°14.683 2°50.687 -999 3.480546 34.142631 12.30222
2009-03-13 08:49:19 51°14.689 2°50.691 -999 3.480546 34.142631 12.406692
2009-03-13 08:49:24 51°14.694 2°50.695 -999 3.480546 34.142631 12.685285
2009-03-13 08:49:29 51°14.699 2°50.699 -999 3.480546 34.143551 12.929053
2009-03-13 08:49:34 51°14.705 2°50.703 -999 3.479095 34.12958 13.312118
2009-03-13 08:49:39 51°14.71 2°50.706 -999 3.480339 34.144973 13.24247
2009-03-13 08:49:44 51°14.715 2°50.709 -999 3.480339 34.144973 13.24247
2009-03-13 08:49:49 51°14.72 2°50.712 -999 3.480339 34.145893 12.685285
2009-03-13 08:49:54 51°14.725 2°50.715 -999 3.480235 34.145684 12.545989
2009-03-13 08:49:59 51°14.731 2°50.717 -999 3.480339 34.147734 12.406692
2009-03-13 08:50:04 51°14.737 2°50.72 -999 3.480235 34.147525 12.058452
2009-03-13 08:50:08 51°14.742 2°50.723 -999 3.480131 34.147316 11.95398
2009-03-13 08:50:14 51°14.751 2°50.727 -999 3.480131 34.147316 11.95398
2009-03-13 08:50:19 51°14.759 2°50.732 -999 3.479821 34.145768 11.501267
2009-03-13 08:50:24 51°14.767 2°50.736 -999 3.47951 34.14422 11.257499
2009-03-13 08:50:29 51°14.775 2°50.74 -999 3.479924 34.15058 11.153027
2009-03-13 08:50:34 51°14.783 2°50.744 -999 3.479924 34.151501 11.153027
2009-03-13 08:50:39 51°14.791 2°50.748 -999 3.479821 34.151292 11.153027
2009-03-13 08:50:44 51°14.799 2°50.752 -999 3.479821 34.151292 11.153027
2009-03-13 08:50:49 51°14.807 2°50.756 -999 3.476713 34.118319 11.118203
2009-03-13 08:50:54 51°14.815 2°50.76 -999 3.478785 34.143676 11.605739
2009-03-13 08:50:59 51°14.823 2°50.763 -999 3.479614 34.154558 12.093276
2009-03-13 08:51:04 51°14.83 2°50.767 -999 3.47951 34.156192 12.1281
2009-03-13 08:51:08 51°14.836 2°50.77 -999 3.479406 34.157825 11.988804
2009-03-13 08:51:14 51°14.845 2°50.774 -999 3.479406 34.157825 11.988804
2009-03-13 08:51:19 51°14.852 2°50.778 -999 3.479199 34.158329 11.814684
2009-03-13 08:51:24 51°14.859 2°50.781 -999 3.479199 34.15925 11.396795
2009-03-13 08:51:28 51°14.865 2°50.784 -999 3.479096 34.159963 11.257499
2009-03-13 08:51:34 51°14.873 2°50.788 -999 3.477749 34.14619 11.396795
2009-03-13 08:51:39 51°14.879 2°50.791 -999 3.478992 34.161598 11.396795
2009-03-13 08:51:44 51°14.886 2°50.794 -999 3.478992 34.161598 11.396795
2009-03-13 08:51:49 51°14.892 2°50.798 -999 3.478889 34.163232 11.396795
2009-03-13 08:51:54 51°14.899 2°50.801 -999 3.478371 34.160345 11.536091
2009-03-13 08:51:59 51°14.905 2°50.804 -999 3.478578 34.16445 11.536091
2009-03-13 08:52:04 51°14.912 2°50.807 -999 3.47806 34.16064 11.605739
2009-03-13 08:52:09 51°14.919 2°50.811 -999 3.47806 34.162484 11.745035
2009-03-13 08:52:14 51°14.925 2°50.814 -999 3.47806 34.162484 11.745035
2009-03-13 08:52:19 51°14.931 2°50.816 -999 3.477956 34.16412 11.640563
2009-03-13 08:52:24 51°14.937 2°50.819 -999 3.476506 34.150132 11.536091
2009-03-13 08:52:29 51°14.942 2°50.821 -999 3.477335 34.161023 11.77986
2009-03-13 08:52:34 51°14.948 2°50.823 -999 3.477646 34.165338 11.919156
2009-03-13 08:52:39 51°14.953 2°50.825 -999 3.477542 34.166052 11.988804
2009-03-13 08:52:44 51°14.958 2°50.827 -999 3.477542 34.166052 11.988804
2009-03-13 08:52:49 51°14.963 2°50.829 -999 3.477438 34.166766 11.919156
2009-03-13 08:52:54 51°14.968 2°50.831 -999 3.333147 32.596551 11.640563
2009-03-13 08:52:59 51°14.972 2°50.832 -999 3.477335 34.165635 11.536091
2009-03-13 08:53:04 51°14.977 2°50.834 -999 3.477335 34.166557 11.849508
2009-03-13 08:53:09 51°14.981 2°50.836 -999 3.477128 34.16614 12.093276
2009-03-13 08:53:14 51°14.986 2°50.837 -999 3.477128 34.16614 12.093276
2009-03-13 08:53:19 51°14.99 2°50.838 -999 3.477128 34.167063 12.232572
2009-03-13 08:53:24 51°14.994 2°50.84 -999 3.47692 34.165723 12.580813
2009-03-13 08:53:29 51°14.998 2°50.841 -999 3.476817 34.164592 12.859405
2009-03-13 08:53:34 51°15.002 2°50.843 -999 3.476713 34.164383 12.859405
2009-03-13 08:53:39 51°15.006 2°50.844 -999 3.476506 34.163043 13.451414
2009-03-13 08:53:44 51°15.009 2°50.845 -999 3.476506 34.163043 13.451414
2009-03-13 08:53:48 51°15.012 2°50.846 -999 3.476403 34.163757 13.521062
2009-03-13 08:53:54 51°15.017 2°50.847 -999 3.476299 34.161703 13.730007
2009-03-13 08:53:59 51°15.02 2°50.848 -999 3.476299 34.162625 13.730007
2009-03-13 08:54:04 51°15.024 2°50.849 -999 3.476195 34.162417 13.764831
2009-03-13 08:54:09 51°15.027 2°50.85 -999 3.476092 34.162208 13.41659
2009-03-13 08:54:14 51°15.031 2°50.852 -999 3.476092 34.162208 13.41659
2009-03-13 08:54:19 51°15.034 2°50.853 -999 3.475988 34.161077 13.346942
2009-03-13 08:54:24 51°15.037 2°50.854 -999 3.475885 34.159023 13.660358
2009-03-13 08:54:29 51°15.041 2°50.855 -999 3.475781 34.158814 13.730007
2009-03-13 08:54:34 51°15.044 2°50.855 -999 3.475677 34.157682 14.078247
2009-03-13 08:54:39 51°15.046 2°50.856 -999 3.475574 34.156551 13.904127
2009-03-13 08:54:44 51°15.049 2°50.857 -999 3.475574 34.156551 13.904127
2009-03-13 08:54:49 51°15.052 2°50.857 -999 3.475574 34.157474 13.730007
2009-03-13 08:54:54 51°15.054 2°50.857 -999 3.475574 34.156551 13.451414
2009-03-13 08:54:59 51°15.056 2°50.858 -999 3.47547 34.156342 13.346942
2009-03-13 08:55:04 51°15.058 2°50.858 -999 3.475367 34.155211 13.764831
2009-03-13 08:55:09 51°15.06 2°50.858 -999 3.475263 34.154079 13.730007
2009-03-13 08:55:14 51°15.061 2°50.857 -999 3.475263 34.154079 13.730007
2009-03-13 08:55:19 51°15.062 2°50.857 -999 3.475263 34.155002 13.764831
2009-03-13 08:55:24 51°15.064 2°50.857 -999 3.475159 34.153871 13.834479
2009-03-13 08:55:28 51°15.065 2°50.857 -999 3.475056 34.152739 13.207646
2009-03-13 08:55:34 51°15.066 2°50.856 -999 3.475159 34.153871 12.894229
2009-03-13 08:55:39 51°15.066 2°50.856 -999 3.475056 34.153662 12.929053
2009-03-13 08:55:44 51°15.067 2°50.855 -999 3.475056 34.153662 12.929053
2009-03-13 08:55:49 51°15.067 2°50.854 -999 3.474952 34.15253 12.650461
2009-03-13 08:55:54 51°15.067 2°50.853 -999 3.475056 34.152739 12.650461
2009-03-13 08:55:59 51°15.067 2°50.851 -999 3.475056 34.152739 12.371868
2009-03-13 08:56:04 51°15.066 2°50.85 -999 3.474952 34.151608 12.580813
2009-03-13 08:56:09 51°15.065 2°50.848 -999 3.475056 34.151817 13.277294
2009-03-13 08:56:14 51°15.064 2°50.846 -999 3.475056 34.151817 13.277294
2009-03-13 08:56:19 51°15.063 2°50.845 -999 3.474952 34.15253 13.730007
2009-03-13 08:56:24 51°15.063 2°50.843 -999 3.474849 34.152321 13.973775
2009-03-13 08:56:29 51°15.062 2°50.841 -999 3.474745 34.153035 14.043423
2009-03-13 08:56:34 51°15.061 2°50.839 -999 3.474641 34.152826 14.252367
2009-03-13 08:56:39 51°15.06 2°50.838 -999 3.474641 34.153749 14.565784
2009-03-13 08:56:44 51°15.059 2°50.836 -999 3.474641 34.153749 14.565784
2009-03-13 08:56:49 51°15.058 2°50.834 -999 3.474538 34.15354 15.401561
2009-03-13 08:56:54 51°15.057 2°50.832 -999 3.474434 34.153331 16.063218
2009-03-13 08:56:59 51°15.056 2°50.831 -999 3.474331 34.152199 15.958746
2009-03-13 08:57:04 51°15.055 2°50.829 -999 3.474331 34.153122 15.99357
2009-03-13 08:57:09 51°15.054 2°50.827 -999 3.474227 34.153836 16.063218
2009-03-13 08:57:14 51°15.053 2°50.825 -999 3.474227 34.153836 16.063218
2009-03-13 08:57:19 51°15.052 2°50.823 -999 3.474227 34.153836 16.202514
2009-03-13 08:57:24 51°15.051 2°50.822 -999 3.474124 34.152704 16.341811
2009-03-13 08:57:29 51°15.05 2°50.82 -999 3.474124 34.153627 16.341811
2009-03-13 08:57:34 51°15.049 2°50.818 -999 3.47402 34.153418 16.306987
2009-03-13 08:57:39 51°15.048 2°50.816 -999 3.47402 34.153418 16.16769
2009-03-13 08:57:44 51°15.046 2°50.814 -999 3.47402 34.153418 16.16769
2009-03-13 08:57:49 51°15.045 2°50.812 -999 3.47402 34.153418 15.923922
2009-03-13 08:57:54 51°15.044 2°50.811 -999 3.47402 34.153418 15.784626
2009-03-13 08:57:59 51°15.043 2°50.809 -999 3.474124 34.15455 15.575681
2009-03-13 08:58:04 51°15.042 2°50.807 -999 3.47402 34.153418 15.575681
2009-03-13 08:58:08 51°15.041 2°50.805 -999 3.47402 34.153418 15.436385
2009-03-13 08:58:14 51°15.04 2°50.803 -999 3.47402 34.153418 15.436385
2009-03-13 08:58:19 51°15.039 2°50.801 -999 3.47402 34.153418 15.018497
2009-03-13 08:58:24 51°15.038 2°50.799 -999 3.47402 34.152495 14.809552
2009-03-13 08:58:29 51°15.036 2°50.798 -999 3.47402 34.152495 14.8792
2009-03-13 08:58:34 51°15.035 2°50.796 -999 3.47402 34.152495 15.645329
2009-03-13 08:58:39 51°15.034 2°50.795 -999 3.47402 34.152495 16.132866
2009-03-13 08:58:44 51°15.033 2°50.794 -999 3.47402 34.152495 16.132866
2009-03-13 08:58:49 51°15.032 2°50.793 -999 3.47402 34.153418 16.724875
2009-03-13 08:58:54 51°15.032 2°50.795 -999 3.473916 34.153209 17.073116
2009-03-13 08:58:59 51°15.031 2°50.799 -999 3.473916 34.153209 17.421356
2009-03-13 08:59:04 51°15.032 2°50.804 -999 3.473916 34.154132 17.491004
2009-03-13 08:59:09 51°15.033 2°50.811 -999 3.473813 34.153923 17.525828
2009-03-13 08:59:14 51°15.034 2°50.82 -999 3.473813 34.153923 17.525828
2009-03-13 08:59:19 51°15.037 2°50.829 -999 3.473813 34.153 17.525828
2009-03-13 08:59:24 51°15.041 2°50.839 -999 3.473709 34.152791 17.10794
2009-03-13 08:59:29 51°15.046 2°50.848 -999 3.473709 34.152791 17.038292
2009-03-13 08:59:34 51°15.051 2°50.858 -999 3.473709 34.151868 17.142764
2009-03-13 08:59:39 51°15.058 2°50.867 -999 3.473916 34.153209 16.272162
2009-03-13 08:59:44 51°15.064 2°50.877 -999 3.473916 34.153209 16.272162
2009-03-13 08:59:48 51°15.07 2°50.884 -999 3.473916 34.152286 15.088145
2009-03-13 08:59:54 51°15.08 2°50.894 -999 3.47402 34.151572 14.043423
2009-03-13 08:59:59 51°15.089 2°50.903 -999 3.474124 34.151781 13.24247
2009-03-13 09:00:04 51°15.098 2°50.911 -999 3.474124 34.151781 12.650461
2009-03-13 09:00:08 51°15.105 2°50.917 -999 3.474227 34.15199 12.267396
2009-03-13 09:00:14 51°15.116 2°50.926 -999 3.474227 34.15199 12.267396
2009-03-13 09:00:19 51°15.126 2°50.934 -999 3.474227 34.151067 11.605739
2009-03-13 09:00:24 51°15.136 2°50.941 -999 3.474331 34.151276 11.466443
2009-03-13 09:00:29 51°15.146 2°50.948 -999 3.474434 34.151485 11.814684
2009-03-13 09:00:34 51°15.156 2°50.955 -999 3.474538 34.151694 11.919156
2009-03-13 09:00:39 51°15.167 2°50.962 -999 3.474434 34.150563 12.162924
2009-03-13 09:00:44 51°15.177 2°50.969 -999 3.474434 34.150563 12.162924
2009-03-13 09:00:49 51°15.188 2°50.975 -999 3.474434 34.150563 12.232572
2009-03-13 09:00:54 51°15.198 2°50.982 -999 3.474434 34.150563 12.545989
2009-03-13 09:00:59 51°15.209 2°50.989 -999 3.474331 34.148509 12.929053
2009-03-13 09:01:04 51°15.221 2°50.996 -999 3.474227 34.147377 13.207646
2009-03-13 09:01:09 51°15.232 2°51.004 -999 3.474123 34.146246 13.59071
2009-03-13 09:01:14 51°15.245 2°51.012 -999 3.474123 34.146246 13.59071
2009-03-13 09:01:19 51°15.258 2°51.02 -999 3.47402 34.144192 13.625534
2009-03-13 09:01:24 51°15.27 2°51.029 -999 3.473916 34.142138 13.486238
2009-03-13 09:01:29 51°15.284 2°51.038 -999 3.473916 34.141216 13.521062
2009-03-13 09:01:34 51°15.297 2°51.047 -999 3.473916 34.141216 13.207646
2009-03-13 09:01:39 51°15.31 2°51.056 -999 3.473916 34.141216 13.103174
2009-03-13 09:01:44 51°15.323 2°51.065 -999 3.473916 34.141216 13.103174
2009-03-13 09:01:49 51°15.337 2°51.074 -999 3.47402 34.142348 12.824581
2009-03-13 09:01:54 51°15.35 2°51.083 -999 3.474123 34.143479 12.720109
2009-03-13 09:01:59 51°15.364 2°51.093 -999 3.474331 34.144819 12.511165
2009-03-13 09:02:04 51°15.377 2°51.102 -999 3.474434 34.147795 12.476341
2009-03-13 09:02:08 51°15.388 2°51.11 -999 3.474434 34.147795 12.476341
2009-03-13 09:02:14 51°15.404 2°51.122 -999 3.474538 34.149849 12.545989
2009-03-13 09:02:19 51°15.417 2°51.132 -999 3.474641 34.151903 12.859405
2009-03-13 09:02:24 51°15.43 2°51.141 -999 3.474745 34.153957 13.486238
2009-03-13 09:02:29 51°15.443 2°51.15 -999 3.474849 34.155089 14.008599
2009-03-13 09:02:34 51°15.455 2°51.157 -999 3.474952 34.156221 14.356839
2009-03-13 09:02:39 51°15.466 2°51.164 -999 3.475056 34.157352 14.670256
2009-03-13 09:02:44 51°15.475 2°51.171 -999 3.475056 34.157352 14.670256
2009-03-13 09:02:48 51°15.483 2°51.175 -999 3.475159 34.157561 14.983672
2009-03-13 09:02:54 51°15.493 2°51.181 -999 3.475263 34.159615 15.157793
2009-03-13 09:02:59 51°15.5 2°51.184 -999 3.475367 34.159824 15.540857
2009-03-13 09:03:04 51°15.506 2°51.186 -999 3.47547 34.160956 15.749802
2009-03-13 09:03:09 51°15.512 2°51.187 -999 3.475263 34.15777 15.680154
2009-03-13 09:03:14 51°15.516 2°51.187 -999 3.475263 34.15777 15.680154
2009-03-13 09:03:19 51°15.52 2°51.186 -999 3.474849 34.155089 15.506033
2009-03-13 09:03:24 51°15.524 2°51.184 -999 3.474849 34.155089 15.331913
2009-03-13 09:03:29 51°15.526 2°51.182 -999 3.475263 34.160538 15.192617
2009-03-13 09:03:34 51°15.529 2°51.18 -999 3.475263 34.161461 14.600608
2009-03-13 09:03:39 51°15.531 2°51.179 -999 3.475677 34.165987 13.172822
2009-03-13 09:03:44 51°15.533 2°51.177 -999 3.475677 34.165987 13.172822
2009-03-13 09:03:49 51°15.535 2°51.176 -999 3.475781 34.167119 12.1281
2009-03-13 09:03:54 51°15.537 2°51.175 -999 3.476299 34.171854 11.536091
2009-03-13 09:03:59 51°15.539 2°51.173 -999 3.476506 34.172271 11.048554
2009-03-13 09:04:04 51°15.54 2°51.172 -999 3.476817 34.17382 10.595842
2009-03-13 09:04:09 51°15.542 2°51.171 -999 3.477024 34.176083 10.49137
2009-03-13 09:04:14 51°15.543 2°51.169 -999 3.477024 34.176083 10.49137
2009-03-13 09:04:19 51°15.545 2°51.168 -999 3.477335 34.178554 10.526194
2009-03-13 09:04:24 51°15.546 2°51.167 -999 3.477335 34.179478 11.083378
2009-03-13 09:04:29 51°15.547 2°51.166 -999 3.477542 34.182664 11.327147
2009-03-13 09:04:34 51°15.548 2°51.165 -999 3.477439 34.183379 11.431619
2009-03-13 09:04:39 51°15.549 2°51.164 -999 3.477439 34.183379 11.95398
2009-03-13 09:04:44 51°15.55 2°51.163 -999 3.477439 34.183379 11.95398
2009-03-13 09:04:48 51°15.55 2°51.163 -999 3.477439 34.185226 12.685285
2009-03-13 09:04:54 51°15.551 2°51.162 -999 3.477542 34.188205 12.720109
2009-03-13 09:04:59 51°15.551 2°51.161 -999 3.477335 34.187789 13.033525
2009-03-13 09:05:04 51°15.552 2°51.16 -999 3.477335 34.189637 12.998701
2009-03-13 09:05:09 51°15.552 2°51.159 -999 3.477542 34.193748 12.963877
2009-03-13 09:05:14 51°15.552 2°51.158 -999 3.477542 34.193748 12.963877
2009-03-13 09:05:19 51°15.553 2°51.158 -999 3.477439 34.19354 12.859405
2009-03-13 09:05:24 51°15.553 2°51.157 -999 3.477335 34.193332 12.580813
2009-03-13 09:05:29 51°15.553 2°51.156 -999 3.47661 34.185408 12.511165
2009-03-13 09:05:34 51°15.553 2°51.156 -999 3.477646 34.197653 12.30222
2009-03-13 09:05:39 51°15.553 2°51.155 -999 3.477646 34.196729 11.988804
2009-03-13 09:05:44 51°15.552 2°51.154 -999 3.477646 34.196729 11.988804
2009-03-13 09:05:49 51°15.552 2°51.154 -999 3.477542 34.195597 11.710211
2009-03-13 09:05:54 51°15.552 2°51.153 -999 3.477232 34.191276 11.675387
2009-03-13 09:05:59 51°15.552 2°51.152 -999 3.47775 34.197861 11.77986
2009-03-13 09:06:04 51°15.551 2°51.152 -999 3.477853 34.199917 11.814684
2009-03-13 09:06:09 51°15.551 2°51.151 -999 3.477335 34.194256 12.023628
2009-03-13 09:06:14 51°15.55 2°51.15 -999 3.477335 34.194256 12.023628
2009-03-13 09:06:19 51°15.55 2°51.149 -999 3.477646 34.198577 11.988804
2009-03-13 09:06:24 51°15.549 2°51.149 -999 3.477853 34.200841 11.988804
2009-03-13 09:06:29 51°15.549 2°51.148 -999 3.477335 34.196105 12.093276
2009-03-13 09:06:34 51°15.548 2°51.147 -999 3.47775 34.202482 12.023628
2009-03-13 09:06:39 51°15.547 2°51.146 -999 3.477542 34.201142 12.337044
2009-03-13 09:06:44 51°15.546 2°51.145 -999 3.477542 34.201142 12.337044
2009-03-13 09:06:49 51°15.546 2°51.144 -999 3.477646 34.204123 12.371868
2009-03-13 09:06:54 51°15.545 2°51.144 -999 3.477542 34.203916 12.267396
2009-03-13 09:06:59 51°15.544 2°51.143 -999 3.477542 34.20484 12.197748
2009-03-13 09:07:04 51°15.543 2°51.142 -999 3.477335 34.2035 12.058452
2009-03-13 09:07:08 51°15.542 2°51.141 -999 3.477335 34.204425 11.95398
2009-03-13 09:07:14 51°15.541 2°51.14 -999 3.477335 34.204425 11.95398
2009-03-13 09:07:19 51°15.54 2°51.139 -999 3.477024 34.201952 11.884332
2009-03-13 09:07:24 51°15.539 2°51.138 -999 3.477335 34.207199 11.884332
2009-03-13 09:07:29 51°15.538 2°51.137 -999 3.477335 34.207199 11.814684
2009-03-13 09:07:34 51°15.537 2°51.136 -999 3.477335 34.208124 11.884332
2009-03-13 09:07:39 51°15.536 2°51.135 -999 3.476817 34.202461 11.988804
2009-03-13 09:07:44 51°15.535 2°51.134 -999 3.476817 34.202461 11.988804
2009-03-13 09:07:49 51°15.534 2°51.133 -999 3.477128 34.206784 12.232572
2009-03-13 09:07:54 51°15.533 2°51.132 -999 3.476507 34.200913 12.371868
2009-03-13 09:07:59 51°15.532 2°51.132 -999 3.476817 34.204311 12.476341
2009-03-13 09:08:04 51°15.532 2°51.132 -999 3.477025 34.207501 12.511165
2009-03-13 09:08:09 51°15.531 2°51.132 -999 3.476921 34.205443 12.685285
2009-03-13 09:08:14 51°15.531 2°51.133 -999 3.476921 34.205443 12.685285
2009-03-13 09:08:19 51°15.53 2°51.134 -999 3.477025 34.207501 12.789757
2009-03-13 09:08:24 51°15.53 2°51.135 -999 3.476507 34.200913 12.859405
2009-03-13 09:08:29 51°15.531 2°51.136 -999 3.477025 34.207501 13.103174
2009-03-13 09:08:34 51°15.531 2°51.137 -999 3.476921 34.207293 13.312118
2009-03-13 09:08:39 51°15.531 2°51.138 -999 3.476817 34.207085 13.41659
2009-03-13 09:08:44 51°15.532 2°51.138 -999 3.476817 34.207085 13.41659
2009-03-13 09:08:48 51°15.533 2°51.139 -999 3.476817 34.207085 13.24247
2009-03-13 09:08:54 51°15.534 2°51.139 -999 3.476817 34.207085 13.103174
2009-03-13 09:08:59 51°15.536 2°51.139 -999 3.476921 34.207293 12.685285
2009-03-13 09:09:04 51°15.537 2°51.139 -999 3.476921 34.205443 12.720109
2009-03-13 09:09:09 51°15.539 2°51.138 -999 3.477025 34.206576 12.406692
2009-03-13 09:09:14 51°15.541 2°51.137 -999 3.477025 34.206576 12.406692
2009-03-13 09:09:19 51°15.543 2°51.136 -999 3.477128 34.206784 12.267396
2009-03-13 09:09:24 51°15.545 2°51.135 -999 3.477232 34.206991 12.406692
2009-03-13 09:09:29 51°15.547 2°51.133 -999 3.477128 34.205859 12.232572
2009-03-13 09:09:34 51°15.551 2°51.131 -999 3.476921 34.204518 11.675387
2009-03-13 09:09:39 51°15.556 2°51.129 -999 3.477232 34.206991 11.327147
2009-03-13 09:09:44 51°15.562 2°51.126 -999 3.477232 34.206991 11.327147
2009-03-13 09:09:49 51°15.57 2°51.124 -999 3.477335 34.208124 11.153027
2009-03-13 09:09:54 51°15.578 2°51.121 -999 3.477335 34.209049 10.804786
2009-03-13 09:09:59 51°15.587 2°51.119 -999 3.477335 34.208124 10.456545
2009-03-13 09:10:04 51°15.597 2°51.118 -999 3.477335 34.209974 10.561018
2009-03-13 09:10:09 51°15.607 2°51.117 -999 3.477335 34.209974 9.899361
2009-03-13 09:10:14 51°15.618 2°51.116 -999 3.477335 34.209974 9.899361
2009-03-13 09:10:19 51°15.629 2°51.115 -999 3.477439 34.210181 9.272528
2009-03-13 09:10:24 51°15.64 2°51.114 -999 3.477542 34.210389 8.993935
2009-03-13 09:10:29 51°15.652 2°51.114 -999 3.477543 34.211314 9.377
2009-03-13 09:10:34 51°15.663 2°51.114 -999 3.477439 34.212031 9.969009
2009-03-13 09:10:39 51°15.675 2°51.113 -999 3.477232 34.212541 10.526194
2009-03-13 09:10:44 51°15.688 2°51.113 -999 3.477232 34.212541 10.526194
2009-03-13 09:10:49 51°15.7 2°51.114 -999 3.477025 34.213977 11.570915
2009-03-13 09:10:54 51°15.712 2°51.115 -999 3.476714 34.214279 12.162924
2009-03-13 09:10:59 51°15.723 2°51.119 -999 3.476196 34.213242 12.058452
2009-03-13 09:11:04 51°15.735 2°51.125 -999 3.475885 34.215396 11.814684
2009-03-13 09:11:09 51°15.745 2°51.133 -999 3.475678 34.215907 11.814684
2009-03-13 09:11:14 51°15.755 2°51.143 -999 3.475678 34.215907 11.814684
2009-03-13 09:11:19 51°15.764 2°51.155 -999 3.47516 34.21487 11.919156
2009-03-13 09:11:24 51°15.771 2°51.168 -999 3.474953 34.218159 12.197748
2009-03-13 09:11:29 51°15.778 2°51.183 -999 3.474539 34.219182 11.919156
2009-03-13 09:11:34 51°15.783 2°51.199 -999 3.474021 34.217219 11.536091
2009-03-13 09:11:39 51°15.786 2°51.216 -999 3.474021 34.219072 10.630666
2009-03-13 09:11:44 51°15.789 2°51.233 -999 3.474021 34.219072 10.630666
2009-03-13 09:11:49 51°15.79 2°51.251 -999 3.473399 34.214121 10.108305
2009-03-13 09:11:54 51°15.789 2°51.27 -999 3.473503 34.217108 10.038657
2009-03-13 09:11:59 51°15.787 2°51.288 -999 3.473192 34.215559 10.003833
2009-03-13 09:12:04 51°15.783 2°51.306 -999 3.472156 34.206071 10.073481
2009-03-13 09:12:09 51°15.778 2°51.324 -999 3.472467 34.21318 10.49137
2009-03-13 09:12:14 51°15.772 2°51.34 -999 3.472467 34.21318 10.49137
2009-03-13 09:12:19 51°15.764 2°51.355 -999 3.472156 34.211631 11.222675
2009-03-13 09:12:24 51°15.755 2°51.369 -999 3.472156 34.214411 11.187851
2009-03-13 09:12:29 51°15.745 2°51.381 -999 3.472053 34.214204 10.909258
2009-03-13 09:12:34 51°15.734 2°51.392 -999 3.472156 34.215338 10.804786
2009-03-13 09:12:39 51°15.722 2°51.401 -999 3.47226 34.216473 10.282425
2009-03-13 09:12:44 51°15.71 2°51.407 -999 3.47226 34.216473 10.282425
2009-03-13 09:12:49 51°15.697 2°51.412 -999 3.472156 34.214411 9.829713
2009-03-13 09:12:54 51°15.683 2°51.414 -999 3.472156 34.213485 9.272528
2009-03-13 09:12:59 51°15.669 2°51.414 -999 3.47226 34.212765 8.959111
2009-03-13 09:13:04 51°15.656 2°51.412 -999 3.472881 34.218644 8.43675
2009-03-13 09:13:09 51°15.642 2°51.411 -999 3.472778 34.214729 7.91439
2009-03-13 09:13:14 51°15.627 2°51.411 -999 3.472778 34.214729 7.91439
2009-03-13 09:13:19 51°15.613 2°51.408 -999 3.473296 34.218547 7.775093
2009-03-13 09:13:24 51°15.598 2°51.407 -999 3.473399 34.217827 7.775093
2009-03-13 09:13:29 51°15.584 2°51.406 -999 3.473606 34.220096 7.740269
2009-03-13 09:13:34 51°15.569 2°51.404 -999 3.473399 34.217827 7.879566
2009-03-13 09:13:39 51°15.554 2°51.402 -999 3.473503 34.219888 8.541223
2009-03-13 09:13:44 51°15.539 2°51.4 -999 3.473503 34.219888 8.541223
2009-03-13 09:13:49 51°15.525 2°51.398 -999 3.473503 34.218962 9.272528
2009-03-13 09:13:54 51°15.509 2°51.396 -999 3.473606 34.219169 9.864537
2009-03-13 09:13:59 51°15.494 2°51.394 -999 3.473606 34.216389 9.899361
2009-03-13 09:14:04 51°15.479 2°51.391 -999 3.473917 34.217011 9.969009
2009-03-13 09:14:09 51°15.464 2°51.389 -999 3.473399 34.207637 10.352073
2009-03-13 09:14:14 51°15.449 2°51.387 -999 3.473399 34.207637 10.352073
2009-03-13 09:14:19 51°15.433 2°51.384 -999 3.474331 34.212284 11.083378
2009-03-13 09:14:24 51°15.418 2°51.381 -999 3.474746 34.211262 11.710211
2009-03-13 09:14:29 51°15.403 2°51.378 -999 3.474953 34.207974 12.1281
2009-03-13 09:14:34 51°15.388 2°51.376 -999 3.475264 34.20397 12.511165
2009-03-13 09:14:39 51°15.373 2°51.374 -999 3.475574 34.199967 12.859405
2009-03-13 09:14:44 51°15.357 2°51.371 -999 3.475574 34.199967 12.859405
2009-03-13 09:14:49 51°15.342 2°51.368 -999 3.475781 34.197608 13.346942
2009-03-13 09:14:54 51°15.327 2°51.366 -999 3.476092 34.195458 14.147895
2009-03-13 09:14:59 51°15.312 2°51.363 -999 3.476196 34.191968 14.8792
2009-03-13 09:15:04 51°15.296 2°51.361 -999 3.475781 34.183743 15.714978
2009-03-13 09:15:09 51°15.281 2°51.358 -999 3.475885 34.182103 16.376635
2009-03-13 09:15:14 51°15.266 2°51.355 -999 3.475885 34.182103 16.376635
2009-03-13 09:15:19 51°15.25 2°51.353 -999 3.475678 34.177991 16.306987
2009-03-13 09:15:24 51°15.235 2°51.35 -999 3.475885 34.177484 16.655227
2009-03-13 09:15:29 51°15.22 2°51.347 -999 3.475988 34.176769 16.794523
2009-03-13 09:15:34 51°15.204 2°51.344 -999 3.475885 34.172867 17.073116
2009-03-13 09:15:39 51°15.189 2°51.342 -999 3.475781 34.169889 16.898995
2009-03-13 09:15:44 51°15.174 2°51.339 -999 3.475781 34.169889 16.898995
2009-03-13 09:15:48 51°15.162 2°51.336 -999 3.475677 34.166911 17.003468
2009-03-13 09:15:54 51°15.143 2°51.332 -999 3.475367 34.162593 17.28206
2009-03-13 09:15:59 51°15.128 2°51.329 -999 3.475367 34.162593 17.28206
2009-03-13 09:16:04 51°15.112 2°51.327 -999 3.475367 34.162593 17.10794
2009-03-13 09:16:09 51°15.097 2°51.324 -999 3.474641 34.154671 16.864171
2009-03-13 09:16:14 51°15.082 2°51.321 -999 3.474641 34.154671 16.864171
2009-03-13 09:16:19 51°15.067 2°51.321 -999 3.475159 34.159406 16.272162
2009-03-13 09:16:24 51°15.052 2°51.319 -999 3.475159 34.158484 16.063218
2009-03-13 09:16:29 51°15.037 2°51.319 -999 3.475056 34.156429 15.506033
2009-03-13 09:16:34 51°15.022 2°51.319 -999 3.474227 34.146455 15.018497
2009-03-13 09:16:39 51°15.007 2°51.322 -999 3.474331 34.145742 14.600608
2009-03-13 09:16:44 51°14.992 2°51.324 -999 3.474331 34.145742 14.600608
2009-03-13 09:16:49 51°14.977 2°51.328 -999 3.474849 34.149554 14.217543
2009-03-13 09:16:54 51°14.963 2°51.331 -999 3.474952 34.148841 13.869303
2009-03-13 09:16:59 51°14.948 2°51.336 -999 3.474745 34.143812 13.938951
2009-03-13 09:17:04 51°14.934 2°51.34 -999 3.474538 34.139705 14.914024
2009-03-13 09:17:09 51°14.919 2°51.345 -999 3.474123 34.133337 16.237338
2009-03-13 09:17:14 51°14.905 2°51.351 -999 3.474123 34.133337 16.237338
2009-03-13 09:17:19 51°14.891 2°51.357 -999 3.47402 34.132206 17.247236
2009-03-13 09:17:24 51°14.877 2°51.363 -999 3.473916 34.129232 17.839245
2009-03-13 09:17:29 51°14.862 2°51.368 -999 3.473812 34.126259 18.291958
2009-03-13 09:17:34 51°14.848 2°51.374 -999 3.473812 34.123495 18.605374
2009-03-13 09:17:39 51°14.834 2°51.379 -999 3.473812 34.120731 18.709846
2009-03-13 09:17:44 51°14.82 2°51.385 -999 3.473812 34.120731 18.709846
2009-03-13 09:17:49 51°14.806 2°51.391 -999 3.473709 34.116838 18.57055
2009-03-13 09:17:54 51°14.792 2°51.396 -999 3.47402 34.117467 18.883966
2009-03-13 09:17:59 51°14.778 2°51.403 -999 3.474123 34.117677 18.675022
2009-03-13 09:18:04 51°14.763 2°51.408 -999 3.47433 34.118096 18.535726
2009-03-13 09:18:09 51°14.749 2°51.414 -999 3.474019 34.114705 17.908893
2009-03-13 09:18:14 51°14.735 2°51.421 -999 3.474019 34.114705 17.908893
2009-03-13 09:18:19 51°14.722 2°51.428 -999 3.474745 34.122618 17.45618
2009-03-13 09:18:24 51°14.708 2°51.435 -999 3.475159 34.12714 16.829347
2009-03-13 09:18:29 51°14.694 2°51.442 -999 3.475366 34.130322 16.272162
2009-03-13 09:18:34 51°14.68 2°51.449 -999 3.474538 34.122199 15.99357
2009-03-13 09:18:39 51°14.667 2°51.457 -999 3.475574 34.134426 15.680154
2009-03-13 09:18:44 51°14.653 2°51.464 -999 3.475574 34.134426 15.680154
2009-03-13 09:18:49 51°14.639 2°51.472 -999 3.475366 34.133086 15.262265
2009-03-13 09:18:54 51°14.626 2°51.48 -999 3.47547 34.134216 15.122969
2009-03-13 09:18:59 51°14.612 2°51.488 -999 3.47402 34.116546 15.088145
2009-03-13 09:19:04 51°14.599 2°51.495 -999 3.476299 34.140497 15.262265
2009-03-13 09:19:09 51°14.585 2°51.503 -999 3.476817 34.143386 15.714978
2009-03-13 09:19:14 51°14.571 2°51.51 -999 3.476817 34.143386 15.714978
2009-03-13 09:19:19 51°14.559 2°51.518 -999 3.47692 34.142674 16.202514
2009-03-13 09:19:24 51°14.547 2°51.524 -999 3.477335 34.144432 16.202514
2009-03-13 09:19:29 51°14.535 2°51.53 -999 3.477127 34.139408 16.794523
2009-03-13 09:19:34 51°14.525 2°51.535 -999 3.477645 34.141375 17.038292
2009-03-13 09:19:39 51°14.515 2°51.54 -999 3.477852 34.139952 17.212412
2009-03-13 09:19:44 51°14.505 2°51.544 -999 3.477852 34.139952 17.212412
2009-03-13 09:19:49 51°14.496 2°51.549 -999 3.477438 34.130829 17.45618
2009-03-13 09:19:54 51°14.488 2°51.553 -999 3.477334 34.125097 17.386532
2009-03-13 09:19:59 51°14.48 2°51.556 -999 3.477334 34.121417 17.769597
2009-03-13 09:20:04 51°14.473 2°51.559 -999 3.477852 34.123385 17.978541
2009-03-13 09:20:09 51°14.466 2°51.562 -999 3.477127 34.1118 18.152661
2009-03-13 09:20:14 51°14.46 2°51.564 -999 3.477127 34.1118 18.152661
2009-03-13 09:20:19 51°14.454 2°51.566 -999 3.477231 34.110171 18.291958
2009-03-13 09:20:24 51°14.449 2°51.567 -999 3.477645 34.11193 18.39643
2009-03-13 09:20:28 51°14.445 2°51.569 -999 3.477852 34.111431 18.431254
2009-03-13 09:20:34 51°14.439 2°51.57 -999 3.478059 34.111851 18.779494
2009-03-13 09:20:39 51°14.435 2°51.571 -999 3.478163 34.110222 18.988439
2009-03-13 09:20:44 51°14.431 2°51.572 -999 3.478163 34.110222 18.988439
2009-03-13 09:20:49 51°14.427 2°51.572 -999 3.477956 34.106127 18.988439
2009-03-13 09:20:54 51°14.424 2°51.573 -999 3.477852 34.10316 18.849142
2009-03-13 09:20:59 51°14.421 2°51.572 -999 3.477438 34.096808 18.535726
2009-03-13 09:21:04 51°14.418 2°51.572 -999 3.477852 34.099486 18.326782
2009-03-13 09:21:09 51°14.416 2°51.57 -999 3.477956 34.099696 18.257134
2009-03-13 09:21:14 51°14.414 2°51.569 -999 3.477956 34.099696 18.257134
2009-03-13 09:21:19 51°14.413 2°51.567 -999 3.477956 34.097859 18.187485
2009-03-13 09:21:24 51°14.412 2°51.566 -999 3.477852 34.095812 18.291958
2009-03-13 09:21:29 51°14.412 2°51.564 -999 3.477748 34.092847 18.675022
2009-03-13 09:21:34 51°14.412 2°51.561 -999 3.477956 34.094186 19.127735
2009-03-13 09:21:39 51°14.412 2°51.56 -999 3.477956 34.094186 19.127735
2009-03-13 09:21:44 51°14.412 2°51.558 -999 3.477956 34.094186 19.127735
2009-03-13 09:21:50 51°14.412 2°51.555 -999 3.477852 34.092139 19.023263
2009-03-13 09:21:56 51°14.412 2°51.553 -999 3.477541 34.087835 19.68492
2009-03-13 09:22:01 51°14.412 2°51.551 -999 3.478059 34.09256 21.008234
2009-03-13 09:22:07 51°14.411 2°51.549 -999 3.477645 34.087128 21.635067
2009-03-13 09:22:12 51°14.411 2°51.547 -999 3.477748 34.089174 22.157428
2009-03-13 09:22:17 51°14.411 2°51.546 -999 3.477748 34.089174 22.157428
2009-03-13 09:22:22 51°14.411 2°51.544 -999 3.477748 34.089174 22.540492
2009-03-13 09:22:27 51°14.41 2°51.542 -999 3.477645 34.088046 23.445918
2009-03-13 09:22:32 51°14.41 2°51.54 -999 3.477437 34.085789 23.515566
2009-03-13 09:22:37 51°14.41 2°51.538 -999 3.477334 34.085578 23.794158
2009-03-13 09:22:41 51°14.409 2°51.537 -999 3.477438 34.087625 24.07275
2009-03-13 09:22:46 51°14.409 2°51.535 -999 3.477438 34.087625 24.07275
2009-03-13 09:22:51 51°14.409 2°51.533 -999 3.476816 34.080854 23.411093
2009-03-13 09:22:56 51°14.409 2°51.531 -999 3.47692 34.0829 22.540492
2009-03-13 09:23:01 51°14.408 2°51.53 -999 3.477645 34.0908 21.913659
2009-03-13 09:23:06 51°14.408 2°51.528 -999 3.477334 34.086496 22.157428
2009-03-13 09:23:10 51°14.408 2°51.527 -999 3.477438 34.087625 22.505668
2009-03-13 09:23:15 51°14.407 2°51.525 -999 3.477438 34.087625 22.505668
2009-03-13 09:23:20 51°14.407 2°51.523 -999 3.47692 34.083818 22.43602
2009-03-13 09:23:25 51°14.406 2°51.521 -999 3.477438 34.089461 21.809187
2009-03-13 09:23:30 51°14.406 2°51.519 -999 3.477438 34.089461 21.460946
2009-03-13 09:23:35 51°14.406 2°51.517 -999 3.47723 34.086286 21.530595
2009-03-13 09:23:40 51°14.405 2°51.515 -999 3.476712 34.081561 21.635067
2009-03-13 09:23:44 51°14.405 2°51.513 -999 3.476712 34.081561 21.635067
2009-03-13 09:23:49 51°14.405 2°51.512 -999 3.477438 34.089461 21.600243
2009-03-13 09:23:54 51°14.404 2°51.51 -999 3.47464 34.058075 21.426122
2009-03-13 09:23:59 51°14.404 2°51.508 -999 3.475884 34.071616 20.834113
2009-03-13 09:24:04 51°14.403 2°51.506 -999 3.477023 34.084029 20.381401
2009-03-13 09:24:09 51°14.403 2°51.504 -999 3.477645 34.089882 19.68492
2009-03-13 09:24:13 51°14.403 2°51.503 -999 3.477645 34.089882 19.68492
2009-03-13 09:24:19 51°14.402 2°51.5 -999 3.478059 34.09256 19.301855
2009-03-13 09:24:24 51°14.401 2°51.498 -999 3.477748 34.088256 19.058087
2009-03-13 09:24:29 51°14.401 2°51.496 -999 3.478059 34.090724 19.127735
2009-03-13 09:24:33 51°14.401 2°51.495 -999 3.477645 34.085292 19.267031
2009-03-13 09:24:39 51°14.4 2°51.493 -999 3.478163 34.090934 19.580448
2009-03-13 09:24:44 51°14.399 2°51.491 -999 3.478163 34.090934 19.580448
2009-03-13 09:24:49 51°14.399 2°51.489 -999 3.477955 34.088677 20.03316
2009-03-13 09:24:54 51°14.398 2°51.488 -999 3.477748 34.087338 20.485873
2009-03-13 09:24:59 51°14.398 2°51.486 -999 3.478059 34.091642 20.485873
2009-03-13 09:25:04 51°14.397 2°51.484 -999 3.478163 34.09277 20.834113
2009-03-13 09:25:09 51°14.397 2°51.482 -999 3.477852 34.089385 21.008234
2009-03-13 09:25:13 51°14.396 2°51.48 -999 3.477852 34.089385 21.008234
2009-03-13 09:25:19 51°14.396 2°51.478 -999 3.477541 34.086917 21.14753
2009-03-13 09:25:24 51°14.395 2°51.476 -999 3.477645 34.088046 21.495771
2009-03-13 09:25:29 51°14.394 2°51.474 -999 3.477541 34.086917 21.704715
2009-03-13 09:25:34 51°14.394 2°51.472 -999 3.477852 34.090303 21.948483
2009-03-13 09:25:39 51°14.393 2°51.47 -999 3.477437 34.085789 21.948483
2009-03-13 09:25:44 51°14.393 2°51.468 -999 3.477437 34.085789 21.948483
2009-03-13 09:25:49 51°14.392 2°51.466 -999 3.47723 34.08445 21.460946
2009-03-13 09:25:54 51°14.392 2°51.464 -999 3.477748 34.090092 21.077882
2009-03-13 09:25:59 51°14.391 2°51.462 -999 3.477541 34.087835 20.834113
2009-03-13 09:26:04 51°14.39 2°51.46 -999 3.477541 34.088753 20.97341
2009-03-13 09:26:09 51°14.39 2°51.458 -999 3.477748 34.09101 20.868938
2009-03-13 09:26:14 51°14.389 2°51.456 -999 3.477748 34.09101 20.868938
2009-03-13 09:26:19 51°14.389 2°51.454 -999 3.476816 34.080854 21.286826
2009-03-13 09:26:24 51°14.388 2°51.452 -999 3.477023 34.084029 21.844011
2009-03-13 09:26:29 51°14.387 2°51.45 -999 3.477334 34.088332 22.087779
2009-03-13 09:26:34 51°14.387 2°51.448 -999 3.47692 34.083818 22.087779
2009-03-13 09:26:39 51°14.386 2°51.447 -999 3.47692 34.0829 22.366372
2009-03-13 09:26:44 51°14.385 2°51.444 -999 3.47692 34.0829 22.366372
2009-03-13 09:26:49 51°14.385 2°51.442 -999 3.477541 34.09059 22.122603
2009-03-13 09:26:54 51°14.384 2°51.44 -999 3.477645 34.0908 21.460946
2009-03-13 09:26:59 51°14.384 2°51.438 -999 3.47723 34.086286 21.182354
2009-03-13 09:27:04 51°14.383 2°51.436 -999 3.477645 34.0908 20.659993
2009-03-13 09:27:09 51°14.382 2°51.434 -999 3.476816 34.081772 20.903762
2009-03-13 09:27:14 51°14.382 2°51.432 -999 3.476816 34.081772 20.903762
2009-03-13 09:27:19 51°14.381 2°51.43 -999 3.477127 34.08424 21.32165
2009-03-13 09:27:24 51°14.38 2°51.428 -999 3.477334 34.087414 21.635067
2009-03-13 09:27:29 51°14.379 2°51.426 -999 3.477438 34.088543 22.122603
2009-03-13 09:27:34 51°14.379 2°51.424 -999 3.476712 34.080644 22.366372
2009-03-13 09:27:39 51°14.378 2°51.422 -999 3.477645 34.091718 22.61014
2009-03-13 09:27:44 51°14.377 2°51.42 -999 3.477645 34.091718 22.61014
2009-03-13 09:27:49 51°14.377 2°51.418 -999 3.476609 34.080433 22.575316
2009-03-13 09:27:54 51°14.376 2°51.416 -999 3.477334 34.088332 22.888733
2009-03-13 09:27:59 51°14.375 2°51.414 -999 3.477334 34.088332 22.853909
2009-03-13 09:28:04 51°14.375 2°51.412 -999 3.477334 34.087414 22.575316
2009-03-13 09:28:09 51°14.374 2°51.41 -999 3.47692 34.083818 22.540492
2009-03-13 09:28:14 51°14.373 2°51.407 -999 3.47692 34.083818 22.540492
2009-03-13 09:28:19 51°14.372 2°51.405 -999 3.47692 34.083818 22.122603
2009-03-13 09:28:24 51°14.372 2°51.403 -999 3.477541 34.088753 22.052955
2009-03-13 09:28:29 51°14.371 2°51.401 -999 3.476505 34.078387 21.774363
2009-03-13 09:28:34 51°14.37 2°51.399 -999 3.477748 34.091928 21.426122
2009-03-13 09:28:39 51°14.369 2°51.397 -999 3.477438 34.088543 21.077882
2009-03-13 09:28:44 51°14.369 2°51.394 -999 3.477438 34.088543 21.077882
2009-03-13 09:28:49 51°14.368 2°51.392 -999 3.477334 34.087414 21.112706
2009-03-13 09:28:54 51°14.367 2°51.39 -999 3.477023 34.083111 21.182354
2009-03-13 09:28:59 51°14.366 2°51.388 -999 3.476816 34.080854 21.112706
2009-03-13 09:29:04 51°14.366 2°51.386 -999 3.47837 34.097781 21.252002
2009-03-13 09:29:09 51°14.365 2°51.384 -999 3.478992 34.105471 21.530595
2009-03-13 09:29:14 51°14.364 2°51.381 -999 3.478992 34.105471 21.530595
2009-03-13 09:29:19 51°14.363 2°51.379 -999 3.479095 34.105681 22.087779
2009-03-13 09:29:24 51°14.362 2°51.377 -999 3.479095 34.105681 22.018131
2009-03-13 09:29:29 51°14.362 2°51.375 -999 3.479095 34.105681 22.018131
2009-03-13 09:29:34 51°14.361 2°51.373 -999 3.478474 34.099828 22.052955
2009-03-13 09:29:39 51°14.36 2°51.371 -999 3.47837 34.0987 21.669891
2009-03-13 09:29:44 51°14.359 2°51.368 -999 3.47837 34.0987 21.669891
2009-03-13 09:29:49 51°14.359 2°51.366 -999 3.477748 34.091928 21.635067
2009-03-13 09:29:54 51°14.358 2°51.364 -999 3.477438 34.088543 21.32165
2009-03-13 09:29:59 51°14.357 2°51.362 -999 3.478474 34.100747 21.530595
2009-03-13 09:30:04 51°14.356 2°51.36 -999 3.479095 34.1066 21.913659